Observation data for Amherst on 04/16/2021      Previous  Date  Next       Current Mesonet Observations  Soil Data  Daily Summary Page  Observations in Plain Language
KAMH 160500Z 13013KT 08/08 A2987 RMK A01 T00810081  RH  100%=      5-min Rain = 0
KAMH 160501Z 13013KT 08/08 A2987 RMK A01 T00810081  RH  100%=      5-min Rain = 0
KAMH 160502Z 13013KT 08/08 A2987 RMK A01 T00810081  RH  100%=      5-min Rain = 0
KAMH 160503Z 14012KT 08/08 A2987 RMK A01 T00820081  RH  100%=      5-min Rain = 0
KAMH 160504Z 13012KT 08/08 A2987 RMK A01 T00820081  RH  100%=      5-min Rain = 0
KAMH 160505Z 14013KT 08/08 A2987 RMK A01 T00810081  RH  100%=      5-min Rain = 0.01
KAMH 160506Z 13015KT 08/08 A2987 RMK A01 T00820081  RH  100%=      5-min Rain = 0
KAMH 160507Z 13011KT 08/08 A2987 RMK A01 T00820081  RH  100%=      5-min Rain = 0
KAMH 160508Z 13013KT 08/08 A2987 RMK A01 T00810081  RH  100%=      5-min Rain = 0
KAMH 160509Z 14013KT 08/08 A2987 RMK A01 T00820081  RH  100%=      5-min Rain = 0
KAMH 160510Z 13012KT 08/08 A2987 RMK A01 T00810081  RH  100%=      5-min Rain = 0
KAMH 160511Z 13014KT 08/08 A2987 RMK A01 T00820081  RH  100%=      5-min Rain = 0
KAMH 160512Z 13014KT 08/08 A2987 RMK A01 T00820081  RH  100%=      5-min Rain = 0
KAMH 160513Z 13012KT 08/08 A2987 RMK A01 T00810081  RH  100%=      5-min Rain = 0
KAMH 160514Z 13012G17KT 08/08 A2987 RMK A01 T00820081  RH  100%=      5-min Rain = 0
KAMH 160515Z 13012KT 08/08 A2987 RMK A01 T00820081  RH  100%=      5-min Rain = 0
KAMH 160516Z 13013KT 08/08 A2987 RMK A01 T00820082  RH  100%=      5-min Rain = 0
KAMH 160517Z 13013KT 08/08 A2987 RMK A01 T00820082  RH  100%=      5-min Rain = 0
KAMH 160518Z 13013KT 08/08 A2987 RMK A01 T00820082  RH  100%=      5-min Rain = 0
KAMH 160519Z 13011G17KT 08/08 A2987 RMK A01 T00820082  RH  100%=      5-min Rain = 0
KAMH 160520Z 13014KT 08/08 A2987 RMK A01 T00820082  RH  100%=      5-min Rain = 0
KAMH 160521Z 13011KT 08/08 A2987 RMK A01 T00820082  RH  100%=      5-min Rain = 0
KAMH 160522Z 13011KT 08/08 A2987 RMK A01 T00820082  RH  100%=      5-min Rain = 0
KAMH 160523Z 13011KT 08/08 A2987 RMK A01 T00820082  RH  100%=      5-min Rain = 0
KAMH 160524Z 13011KT 08/08 A2987 RMK A01 T00820082  RH  100%=      5-min Rain = 0
KAMH 160525Z 13010KT 08/08 A2987 RMK A01 T00820082  RH  100%=      5-min Rain = 0
KAMH 160526Z 13012KT 08/08 A2987 RMK A01 T00820082  RH  100%=      5-min Rain = 0
KAMH 160527Z 13009KT 08/08 A2987 RMK A01 T00820082  RH  100%=      5-min Rain = 0
KAMH 160528Z 13012KT 08/08 A2987 RMK A01 T00820082  RH  100%=      5-min Rain = 0
KAMH 160529Z 14010KT 08/08 A2987 RMK A01 T00820082  RH  100%=      5-min Rain = 0
KAMH 160530Z 13013KT 08/08 A2987 RMK A01 T00820082  RH  100%=      5-min Rain = 0
KAMH 160531Z 13012KT 08/08 A2987 RMK A01 T00820082  RH  100%=      5-min Rain = 0
KAMH 160532Z 13012KT 08/08 A2987 RMK A01 T00820082  RH  100%=      5-min Rain = 0
KAMH 160533Z 13010KT 08/08 A2987 RMK A01 T00820082  RH  100%=      5-min Rain = 0
KAMH 160534Z 14010KT 08/08 A2987 RMK A01 T00820082  RH  100%=      5-min Rain = 0
KAMH 160535Z 13009KT 08/08 A2987 RMK A01 T00820082  RH  100%=      5-min Rain = 0
KAMH 160536Z 13010KT 08/08 A2987 RMK A01 T00820082  RH  100%=      5-min Rain = 0
KAMH 160537Z 14010KT 08/08 A2987 RMK A01 T00820082  RH  100%=      5-min Rain = 0
KAMH 160538Z 13010G15KT 08/08 A2987 RMK A01 T00820082  RH  100%=      5-min Rain = 0
KAMH 160539Z 14010G15KT 08/08 A2987 RMK A01 T00820082  RH  100%=      5-min Rain = 0
KAMH 160540Z 14013KT 08/08 A2986 RMK A01 T00820082  RH  100%=      5-min Rain = 0
KAMH 160541Z 14013KT 08/08 A2986 RMK A01 T00820082  RH  100%=      5-min Rain = 0
KAMH 160542Z 14012KT 08/08 A2987 RMK A01 T00820082  RH  100%=      5-min Rain = 0
KAMH 160543Z 14011KT 08/08 A2987 RMK A01 T00820082  RH  100%=      5-min Rain = 0
KAMH 160544Z 14015KT 08/08 A2987 RMK A01 T00820082  RH  100%=      5-min Rain = 0
KAMH 160545Z 14014KT 08/08 A2987 RMK A01 T00820082  RH  100%=      5-min Rain = 0
KAMH 160546Z 14012KT 08/08 A2987 RMK A01 T00820082  RH  100%=      5-min Rain = 0
KAMH 160547Z 15010KT 08/08 A2987 RMK A01 T00820082  RH  100%=      5-min Rain = 0
KAMH 160548Z 14012KT 08/08 A2987 RMK A01 T00820082  RH  100%=      5-min Rain = 0
KAMH 160549Z 14012KT 08/08 A2987 RMK A01 T00820082  RH  100%=      5-min Rain = 0
KAMH 160550Z 14012G17KT 08/08 A2987 RMK A01 T00820082  RH  100%=      5-min Rain = 0
KAMH 160551Z 14012KT 08/08 A2987 RMK A01 T00820082  RH  100%=      5-min Rain = 0
KAMH 160552Z 14013KT 08/08 A2987 RMK A01 T00820082  RH  100%=      5-min Rain = 0
KAMH 160553Z 14012KT 08/08 A2987 RMK A01 T00820082  RH  100%=      5-min Rain = 0
KAMH 160554Z 14014KT 08/08 A2987 RMK A01 T00820082  RH  100%=      5-min Rain = 0
KAMH 160555Z 14012KT 08/08 A2987 RMK A01 T00820082  RH  099%=      5-min Rain = 0
KAMH 160556Z 14013KT 08/08 A2987 RMK A01 T00820082  RH  099%=      5-min Rain = 0
KAMH 160557Z 14013KT 08/08 A2987 RMK A01 T00820081  RH  099%=      5-min Rain = 0
KAMH 160558Z 14011KT 08/08 A2986 RMK A01 T00820081  RH  099%=      5-min Rain = 0
KAMH 160559Z 14011G16KT 08/08 A2986 RMK A01 T00820082  RH  099%=      5-min Rain = 0
KAMH 160600Z 14012KT 08/08 A2986 RMK A01 T00820082  RH  099%=      5-min Rain = 0
KAMH 160601Z 14011KT 08/08 A2986 RMK A01 T00820082  RH  099%=      5-min Rain = 0
KAMH 160602Z 14012KT 08/08 A2986 RMK A01 T00820082  RH  099%=      5-min Rain = 0
KAMH 160603Z 14012KT 08/08 A2986 RMK A01 T00820082  RH  099%=      5-min Rain = 0
KAMH 160604Z 14010KT 08/08 A2986 RMK A01 T00820082  RH  099%=      5-min Rain = 0
KAMH 160605Z 14011G16KT 08/08 A2986 RMK A01 T00820082  RH  100%=      5-min Rain = 0
KAMH 160606Z 14012G17KT 08/08 A2986 RMK A01 T00820082  RH  100%=      5-min Rain = 0
KAMH 160607Z 14013KT 08/08 A2986 RMK A01 T00820082  RH  099%=      5-min Rain = 0
KAMH 160608Z 15012KT 08/08 A2986 RMK A01 T00820082  RH  099%=      5-min Rain = 0
KAMH 160609Z 14012KT 08/08 A2986 RMK A01 T00820082  RH  099%=      5-min Rain = 0
KAMH 160610Z 14012KT 08/08 A2986 RMK A01 T00820082  RH  099%=      5-min Rain = 0
KAMH 160611Z 15010KT 08/08 A2986 RMK A01 T00820082  RH  099%=      5-min Rain = 0
KAMH 160612Z 14009KT 08/08 A2986 RMK A01 T00820082  RH  099%=      5-min Rain = 0
KAMH 160613Z 14012KT 08/08 A2986 RMK A01 T00820082  RH  100%=      5-min Rain = 0
KAMH 160614Z 14012KT 08/08 A2986 RMK A01 T00820082  RH  099%=      5-min Rain = 0
KAMH 160615Z 14010KT 08/08 A2986 RMK A01 T00820082  RH  099%=      5-min Rain = 0
KAMH 160616Z 14011KT 08/08 A2986 RMK A01 T00820082  RH  100%=      5-min Rain = 0
KAMH 160617Z 14010KT 08/08 A2986 RMK A01 T00820082  RH  100%=      5-min Rain = 0
KAMH 160618Z 14009KT 08/08 A2986 RMK A01 T00820082  RH  100%=      5-min Rain = 0
KAMH 160619Z 14010KT 08/08 A2986 RMK A01 T00820082  RH  100%=      5-min Rain = 0
KAMH 160620Z 14011KT 08/08 A2986 RMK A01 T00820082  RH  100%=      5-min Rain = 0
KAMH 160621Z 15010KT 08/08 A2986 RMK A01 T00820082  RH  100%=      5-min Rain = 0
KAMH 160622Z 14009KT 08/08 A2986 RMK A01 T00820082  RH  100%=      5-min Rain = 0
KAMH 160623Z 14011KT 08/08 A2986 RMK A01 T00830082  RH  100%=      5-min Rain = 0
KAMH 160624Z 15011KT 08/08 A2986 RMK A01 T00830082  RH  100%=      5-min Rain = 0
KAMH 160625Z 14009KT 08/08 A2986 RMK A01 T00830082  RH  100%=      5-min Rain = 0
KAMH 160626Z 14010G15KT 08/08 A2986 RMK A01 T00830082  RH  100%=      5-min Rain = 0
KAMH 160627Z 15011KT 08/08 A2986 RMK A01 T00830082  RH  100%=      5-min Rain = 0
KAMH 160628Z 15012G17KT 08/08 A2986 RMK A01 T00830082  RH  100%=      5-min Rain = 0
KAMH 160629Z 15013KT 08/08 A2986 RMK A01 T00830082  RH  100%=      5-min Rain = 0
KAMH 160630Z 15013KT 08/08 A2986 RMK A01 T00830082  RH  100%=      5-min Rain = 0
KAMH 160631Z 15013KT 08/08 A2986 RMK A01 T00830082  RH  100%=      5-min Rain = 0
KAMH 160632Z 15010KT 08/08 A2985 RMK A01 T00830082  RH  100%=      5-min Rain = 0
KAMH 160633Z 15012KT 08/08 A2985 RMK A01 T00830082  RH  100%=      5-min Rain = 0
KAMH 160634Z 15011KT 08/08 A2985 RMK A01 T00830082  RH  100%=      5-min Rain = 0
KAMH 160635Z 15010KT 08/08 A2985 RMK A01 T00830082  RH  100%=      5-min Rain = 0
KAMH 160636Z 15013G18KT 08/08 A2985 RMK A01 T00830083  RH  100%=      5-min Rain = 0
KAMH 160637Z 15012KT 08/08 A2985 RMK A01 T00830083  RH  100%=      5-min Rain = 0
KAMH 160638Z 15013KT 08/08 A2985 RMK A01 T00830083  RH  100%=      5-min Rain = 0
KAMH 160639Z 15011KT 08/08 A2985 RMK A01 T00830083  RH  100%=      5-min Rain = 0
KAMH 160640Z 15012KT 08/08 A2985 RMK A01 T00830083  RH  100%=      5-min Rain = 0
KAMH 160641Z 15014KT 08/08 A2985 RMK A01 T00830083  RH  100%=      5-min Rain = 0
KAMH 160642Z 16014KT 08/08 A2985 RMK A01 T00830083  RH  100%=      5-min Rain = 0
KAMH 160643Z 15013KT 08/08 A2985 RMK A01 T00830083  RH  100%=      5-min Rain = 0
KAMH 160644Z 15012KT 08/08 A2985 RMK A01 T00830083  RH  100%=      5-min Rain = 0
KAMH 160645Z 15013KT 08/08 A2985 RMK A01 T00830083  RH  100%=      5-min Rain = 0
KAMH 160646Z 15012KT 08/08 A2985 RMK A01 T00830083  RH  100%=      5-min Rain = 0
KAMH 160647Z 15012KT 08/08 A2985 RMK A01 T00830083  RH  100%=      5-min Rain = 0
KAMH 160648Z 15010KT 08/08 A2985 RMK A01 T00830083  RH  100%=      5-min Rain = 0
KAMH 160649Z 15010KT 08/08 A2985 RMK A01 T00830083  RH  100%=      5-min Rain = 0
KAMH 160650Z 15012KT 08/08 A2985 RMK A01 T00830083  RH  100%=      5-min Rain = 0
KAMH 160651Z 15015KT 08/08 A2985 RMK A01 T00830083  RH  100%=      5-min Rain = 0
KAMH 160652Z 15016KT 08/08 A2985 RMK A01 T00830083  RH  100%=      5-min Rain = 0
KAMH 160653Z 15013KT 08/08 A2985 RMK A01 T00830083  RH  100%=      5-min Rain = 0
KAMH 160654Z 15012KT 08/08 A2985 RMK A01 T00830083  RH  100%=      5-min Rain = 0
KAMH 160655Z 15013KT 08/08 A2985 RMK A01 T00830083  RH  100%=      5-min Rain = 0
KAMH 160656Z 15013G18KT 08/08 A2985 RMK A01 T00830083  RH  100%=      5-min Rain = 0
KAMH 160657Z 16015KT 08/08 A2985 RMK A01 T00830083  RH  099%=      5-min Rain = 0
KAMH 160658Z 16012KT 08/08 A2985 RMK A01 T00830082  RH  099%=      5-min Rain = 0
KAMH 160659Z 16010KT 08/08 A2986 RMK A01 T00830082  RH  099%=      5-min Rain = 0
KAMH 160700Z 17005G10KT 08/08 A2987 RMK A01 T00830082  RH  099%=      5-min Rain = 0
KAMH 160701Z 24003KT 08/08 A2989 RMK A01 T00830082  RH  099%=      5-min Rain = 0
KAMH 160702Z 29006KT 08/08 A299 RMK A01 T00830082  RH  099%=      5-min Rain = 0
KAMH 160703Z 30012KT 08/08 A2991 RMK A01 T00840083  RH  099%=      5-min Rain = 0
KAMH 160704Z 32013KT 08/08 A2991 RMK A01 T00840083  RH  099%=      5-min Rain = 0
KAMH 160705Z 32011KT 08/08 A2991 RMK A01 T00840083  RH  099%=      5-min Rain = 0
KAMH 160706Z 32009KT 09/08 A2991 RMK A01 T00850084  RH  099%=      5-min Rain = 0
KAMH 160707Z 33003KT 09/08 A299 RMK A01 T00850084  RH  099%=      5-min Rain = 0
KAMH 160708Z 10001KT 09/08 A2989 RMK A01 T00850084  RH  099%=      5-min Rain = 0
KAMH 160709Z 16003KT 09/08 A2988 RMK A01 T00850083  RH  099%=      5-min Rain = 0
KAMH 160710Z 16004KT 09/08 A2988 RMK A01 T00850083  RH  099%=      5-min Rain = 0
KAMH 160711Z 16005KT 08/08 A2988 RMK A01 T00840083  RH  099%=      5-min Rain = 0
KAMH 160712Z 16004KT 08/08 A2988 RMK A01 T00840083  RH  099%=      5-min Rain = 0
KAMH 160713Z 16002KT 08/08 A2989 RMK A01 T00840083  RH  099%=      5-min Rain = 0
KAMH 160714Z 25001KT 08/08 A2989 RMK A01 T00840083  RH  099%=      5-min Rain = 0
KAMH 160715Z 29002KT 08/08 A2989 RMK A01 T00840083  RH  099%=      5-min Rain = 0
KAMH 160716Z 32003KT 08/08 A299 RMK A01 T00840083  RH  099%=      5-min Rain = 0
KAMH 160717Z 33004KT 08/08 A299 RMK A01 T00840083  RH  099%=      5-min Rain = 0
KAMH 160718Z 33006KT 08/08 A299 RMK A01 T00840083  RH  099%=      5-min Rain = 0
KAMH 160719Z 33007KT 09/08 A299 RMK A01 T00850084  RH  099%=      5-min Rain = 0
KAMH 160720Z 33007KT 09/08 A299 RMK A01 T00850084  RH  099%=      5-min Rain = 0
KAMH 160721Z 33006KT 09/08 A299 RMK A01 T00850084  RH  099%=      5-min Rain = 0
KAMH 160722Z 33005KT 09/08 A299 RMK A01 T00850084  RH  099%=      5-min Rain = 0
KAMH 160723Z 32004KT 09/08 A299 RMK A01 T00850084  RH  099%=      5-min Rain = 0
KAMH 160724Z 33004KT 09/08 A299 RMK A01 T00850084  RH  100%=      5-min Rain = 0
KAMH 160725Z 33004KT 09/08 A299 RMK A01 T00850084  RH  099%=      5-min Rain = 0
KAMH 160726Z 32004KT 09/08 A299 RMK A01 T00850084  RH  100%=      5-min Rain = 0
KAMH 160727Z 30005KT 09/08 A299 RMK A01 T00850084  RH  099%=      5-min Rain = 0
KAMH 160728Z 30004KT 09/08 A299 RMK A01 T00850084  RH  099%=      5-min Rain = 0
KAMH 160729Z 30004KT 09/08 A299 RMK A01 T00850084  RH  099%=      5-min Rain = 0
KAMH 160730Z 30004KT 09/08 A299 RMK A01 T00850084  RH  099%=      5-min Rain = 0
KAMH 160731Z 31004KT 09/08 A299 RMK A01 T00850084  RH  100%=      5-min Rain = 0.01
KAMH 160732Z 31004KT 09/09 A299 RMK A01 T00850085  RH  100%=      5-min Rain = 0
KAMH 160733Z 32003KT 09/09 A299 RMK A01 T00850085  RH  100%=      5-min Rain = 0
KAMH 160734Z 33003KT 09/08 A2989 RMK A01 T00850084  RH  100%=      5-min Rain = 0
KAMH 160735Z 33002KT 09/08 A2989 RMK A01 T00850084  RH  100%=      5-min Rain = 0
KAMH 160736Z 32002KT 09/08 A2989 RMK A01 T00850084  RH  100%=      5-min Rain = 0
KAMH 160737Z 32002KT 09/08 A2989 RMK A01 T00850084  RH  100%=      5-min Rain = 0
KAMH 160738Z 32001KT 09/08 A2989 RMK A01 T00850084  RH  100%=      5-min Rain = 0
KAMH 160739Z 32001KT 09/08 A2989 RMK A01 T00850084  RH  099%=      5-min Rain = 0
KAMH 160740Z 32000KT 08/08 A2989 RMK A01 T00840084  RH  099%=      5-min Rain = 0
KAMH 160741Z 00000KT 08/08 A2989 RMK A01 T00840083  RH  099%=      5-min Rain = 0
KAMH 160742Z 00000KT 08/08 A2989 RMK A01 T00840083  RH  099%=      5-min Rain = 0
KAMH 160743Z 00000KT 08/08 A2989 RMK A01 T00840083  RH  099%=      5-min Rain = 0
KAMH 160744Z 00000KT 08/08 A2989 RMK A01 T00840083  RH  099%=      5-min Rain = 0
KAMH 160745Z 00000KT 08/08 A2989 RMK A01 T00840083  RH  099%=      5-min Rain = 0
KAMH 160746Z 00000KT 08/08 A2989 RMK A01 T00840084  RH  100%=      5-min Rain = 0
KAMH 160747Z 34001KT 08/08 A2989 RMK A01 T00840083  RH  100%=      5-min Rain = 0
KAMH 160748Z 00001KT 08/08 A2989 RMK A01 T00840083  RH  100%=      5-min Rain = 0
KAMH 160749Z 35001KT 08/08 A2989 RMK A01 T00840084  RH  100%=      5-min Rain = 0
KAMH 160750Z 35002KT 08/08 A2989 RMK A01 T00840084  RH  100%=      5-min Rain = 0
KAMH 160751Z 35002KT 09/08 A2989 RMK A01 T00850084  RH  100%=      5-min Rain = 0
KAMH 160752Z 36002KT 09/08 A2989 RMK A01 T00850084  RH  100%=      5-min Rain = 0
KAMH 160753Z 02001KT 09/08 A2989 RMK A01 T00850084  RH  100%=      5-min Rain = 0
KAMH 160754Z 03001KT 09/08 A2988 RMK A01 T00850084  RH  100%=      5-min Rain = 0
KAMH 160755Z 02000KT 09/08 A2988 RMK A01 T00850084  RH  100%=      5-min Rain = 0
KAMH 160756Z 02000KT 09/08 A2988 RMK A01 T00850084  RH  100%=      5-min Rain = 0
KAMH 160757Z 00000KT 09/08 A2988 RMK A01 T00850084  RH  100%=      5-min Rain = 0
KAMH 160758Z 00001KT 09/08 A2988 RMK A01 T00850084  RH  100%=      5-min Rain = 0.01
KAMH 160759Z 01001KT 09/08 A2988 RMK A01 T00850084  RH  099%=      5-min Rain = 0
KAMH 160800Z 03001KT 09/08 A2988 RMK A01 T00850084  RH  099%=      5-min Rain = 0
KAMH 160801Z 04001KT 09/08 A2988 RMK A01 T00850084  RH  100%=      5-min Rain = 0
KAMH 160802Z 05001KT 09/08 A2988 RMK A01 T00850084  RH  100%=      5-min Rain = 0
KAMH 160803Z 06001KT 09/08 A2988 RMK A01 T00850084  RH  100%=      5-min Rain = 0
KAMH 160804Z 06001KT 09/08 A2988 RMK A01 T00850084  RH  100%=      5-min Rain = 0
KAMH 160805Z 06001KT 09/08 A2988 RMK A01 T00850084  RH  100%=      5-min Rain = 0
KAMH 160806Z 06001KT 09/08 A2988 RMK A01 T00850084  RH  100%=      5-min Rain = 0
KAMH 160807Z 06001KT 09/08 A2988 RMK A01 T00850084  RH  100%=      5-min Rain = 0
KAMH 160808Z 08002KT 09/08 A2988 RMK A01 T00850084  RH  100%=      5-min Rain = 0
KAMH 160809Z 09003KT 09/08 A2988 RMK A01 T00850084  RH  100%=      5-min Rain = 0
KAMH 160810Z 10003KT 09/08 A2988 RMK A01 T00850084  RH  100%=      5-min Rain = 0
KAMH 160811Z 10002KT 09/08 A2988 RMK A01 T00850084  RH  100%=      5-min Rain = 0
KAMH 160812Z 11002KT 08/08 A2988 RMK A01 T00840084  RH  100%=      5-min Rain = 0
KAMH 160813Z 11002KT 08/08 A2988 RMK A01 T00840084  RH  100%=      5-min Rain = 0
KAMH 160814Z 10002KT 08/08 A2988 RMK A01 T00840084  RH  100%=      5-min Rain = 0
KAMH 160815Z 11002KT 08/08 A2988 RMK A01 T00840084  RH  100%=      5-min Rain = 0
KAMH 160816Z 10002KT 08/08 A2988 RMK A01 T00840084  RH  100%=      5-min Rain = 0
KAMH 160817Z 09002KT 08/08 A2988 RMK A01 T00840084  RH  100%=      5-min Rain = 0
KAMH 160818Z 07001KT 08/08 A2988 RMK A01 T00840084  RH  100%=      5-min Rain = 0
KAMH 160819Z 04001KT 08/08 A2988 RMK A01 T00840084  RH  100%=      5-min Rain = 0
KAMH 160820Z 03001KT 08/08 A2988 RMK A01 T00840084  RH  100%=      5-min Rain = 0
KAMH 160821Z 03002KT 08/08 A2988 RMK A01 T00840084  RH  100%=      5-min Rain = 0
KAMH 160822Z 03002KT 08/08 A2989 RMK A01 T00840084  RH  100%=      5-min Rain = 0
KAMH 160823Z 01003KT 08/08 A2989 RMK A01 T00840084  RH  100%=      5-min Rain = 0
KAMH 160824Z 00003KT 08/08 A2989 RMK A01 T00840084  RH  100%=      5-min Rain = 0
KAMH 160825Z 00003KT 08/08 A2989 RMK A01 T00840084  RH  100%=      5-min Rain = 0
KAMH 160826Z 36004KT 08/08 A2989 RMK A01 T00840084  RH  100%=      5-min Rain = 0
KAMH 160827Z 35004KT 09/08 A2989 RMK A01 T00850084  RH  100%=      5-min Rain = 0
KAMH 160828Z 36004KT 09/08 A2989 RMK A01 T00850084  RH  100%=      5-min Rain = 0
KAMH 160829Z 35004KT 09/08 A2989 RMK A01 T00850084  RH  100%=      5-min Rain = 0
KAMH 160830Z 36004KT 09/09 A2989 RMK A01 T00850085  RH  100%=      5-min Rain = 0
KAMH 160831Z 36005KT 09/09 A2989 RMK A01 T00850085  RH  100%=      5-min Rain = 0
KAMH 160832Z 35004KT 09/09 A2989 RMK A01 T00850085  RH  100%=      5-min Rain = 0
KAMH 160833Z 36003KT 09/09 A2989 RMK A01 T00850085  RH  100%=      5-min Rain = 0
KAMH 160834Z 35003KT 09/09 A2989 RMK A01 T00850085  RH  100%=      5-min Rain = 0
KAMH 160835Z 35003KT 09/09 A2989 RMK A01 T00850085  RH  100%=      5-min Rain = 0
KAMH 160836Z 01003KT 09/09 A2989 RMK A01 T00850085  RH  100%=      5-min Rain = 0
KAMH 160837Z 02004KT 09/09 A2989 RMK A01 T00850085  RH  100%=      5-min Rain = 0
KAMH 160838Z 01004KT 09/09 A2989 RMK A01 T00850085  RH  100%=      5-min Rain = 0
KAMH 160839Z 00003KT 09/09 A2989 RMK A01 T00850085  RH  100%=      5-min Rain = 0
KAMH 160840Z 00003KT 09/09 A2989 RMK A01 T00850085  RH  100%=      5-min Rain = 0
KAMH 160841Z 00004KT 09/09 A2989 RMK A01 T00850085  RH  100%=      5-min Rain = 0
KAMH 160842Z 01004KT 09/09 A2989 RMK A01 T00850085  RH  100%=      5-min Rain = 0
KAMH 160843Z 01004KT 09/09 A2989 RMK A01 T00850085  RH  100%=      5-min Rain = 0
KAMH 160844Z 02003KT 09/09 A2989 RMK A01 T00850085  RH  100%=      5-min Rain = 0
KAMH 160845Z 02003KT 09/09 A2989 RMK A01 T00850085  RH  100%=      5-min Rain = 0
KAMH 160846Z 02004KT 09/09 A2989 RMK A01 T00850085  RH  100%=      5-min Rain = 0
KAMH 160847Z 01004KT 09/09 A2989 RMK A01 T00850085  RH  100%=      5-min Rain = 0
KAMH 160848Z 01004KT 09/09 A2989 RMK A01 T00850085  RH  100%=      5-min Rain = 0
KAMH 160849Z 01004KT 09/09 A2989 RMK A01 T00850085  RH  100%=      5-min Rain = 0
KAMH 160850Z 01004KT 09/09 A2989 RMK A01 T00850085  RH  100%=      5-min Rain = 0
KAMH 160851Z 01004KT 09/08 A2989 RMK A01 T00850084  RH  100%=      5-min Rain = 0
KAMH 160852Z 01004KT 09/08 A2989 RMK A01 T00850084  RH  100%=      5-min Rain = 0
KAMH 160853Z 01004KT 09/08 A2989 RMK A01 T00850084  RH  100%=      5-min Rain = 0
KAMH 160854Z 36003KT 09/08 A2989 RMK A01 T00850084  RH  100%=      5-min Rain = 0
KAMH 160855Z 01004KT 09/08 A2989 RMK A01 T00850084  RH  100%=      5-min Rain = 0
KAMH 160856Z 01004KT 09/08 A2989 RMK A01 T00850084  RH  100%=      5-min Rain = 0
KAMH 160857Z 01004KT 09/08 A2989 RMK A01 T00850084  RH  100%=      5-min Rain = 0
KAMH 160858Z 00004KT 09/08 A2989 RMK A01 T00850084  RH  100%=      5-min Rain = 0
KAMH 160859Z 00005KT 09/08 A2989 RMK A01 T00850084  RH  100%=      5-min Rain = 0
KAMH 160900Z 00005KT 09/09 A2989 RMK A01 T00850085  RH  100%=      5-min Rain = 0
KAMH 160901Z 01006KT 09/09 A2989 RMK A01 T00850085  RH  100%=      5-min Rain = 0
KAMH 160902Z 01005KT 09/09 A2989 RMK A01 T00850085  RH  100%=      5-min Rain = 0
KAMH 160903Z 00005KT 09/09 A2989 RMK A01 T00850085  RH  100%=      5-min Rain = 0
KAMH 160904Z 36007KT 09/09 A299 RMK A01 T00850085  RH  100%=      5-min Rain = 0
KAMH 160905Z 00007KT 09/09 A299 RMK A01 T00860085  RH  100%=      5-min Rain = 0
KAMH 160906Z 00006KT 09/09 A299 RMK A01 T00860085  RH  100%=      5-min Rain = 0
KAMH 160907Z 00006KT 09/09 A299 RMK A01 T00860085  RH  100%=      5-min Rain = 0
KAMH 160908Z 00008KT 09/09 A299 RMK A01 T00860085  RH  100%=      5-min Rain = 0
KAMH 160909Z 36009KT 09/09 A299 RMK A01 T00860085  RH  100%=      5-min Rain = 0
KAMH 160910Z 00007KT 09/09 A299 RMK A01 T00860085  RH  100%=      5-min Rain = 0
KAMH 160911Z 00008KT 09/09 A299 RMK A01 T00860085  RH  100%=      5-min Rain = 0
KAMH 160912Z 01008KT 09/09 A299 RMK A01 T00860085  RH  100%=      5-min Rain = 0
KAMH 160913Z 01008KT 09/09 A299 RMK A01 T00860085  RH  100%=      5-min Rain = 0
KAMH 160914Z 01007KT 09/09 A299 RMK A01 T00860085  RH  100%=      5-min Rain = 0
KAMH 160915Z 01008KT 09/09 A2989 RMK A01 T00860085  RH  100%=      5-min Rain = 0
KAMH 160916Z 01007KT 09/09 A2989 RMK A01 T00860085  RH  100%=      5-min Rain = 0
KAMH 160917Z 01008KT 09/09 A299 RMK A01 T00860085  RH  100%=      5-min Rain = 0
KAMH 160918Z 02007KT 09/09 A299 RMK A01 T00860085  RH  100%=      5-min Rain = 0
KAMH 160919Z 01007KT 09/09 A299 RMK A01 T00860085  RH  100%=      5-min Rain = 0
KAMH 160920Z 02007KT 09/09 A299 RMK A01 T00860085  RH  100%=      5-min Rain = 0
KAMH 160921Z 02008KT 09/09 A2989 RMK A01 T00860085  RH  100%=      5-min Rain = 0
KAMH 160922Z 02007KT 09/09 A2989 RMK A01 T00860085  RH  100%=      5-min Rain = 0
KAMH 160923Z 02006KT 09/09 A2989 RMK A01 T00860085  RH  100%=      5-min Rain = 0
KAMH 160924Z 02006KT 09/09 A2989 RMK A01 T00860085  RH  100%=      5-min Rain = 0
KAMH 160925Z 02006KT 09/09 A2989 RMK A01 T00860085  RH  100%=      5-min Rain = 0
KAMH 160926Z 02007KT 09/09 A2989 RMK A01 T00860085  RH  100%=      5-min Rain = 0
KAMH 160927Z 02009KT 09/09 A2989 RMK A01 T00860085  RH  100%=      5-min Rain = 0
KAMH 160928Z 02008KT 09/08 A2989 RMK A01 T00850084  RH  099%=      5-min Rain = 0
KAMH 160929Z 02008KT 09/08 A2989 RMK A01 T00850084  RH  099%=      5-min Rain = 0
KAMH 160930Z 02007KT 09/08 A2989 RMK A01 T00850084  RH  099%=      5-min Rain = 0
KAMH 160931Z 02007KT 09/08 A2989 RMK A01 T00850084  RH  099%=      5-min Rain = 0
KAMH 160932Z 02006KT 09/08 A2989 RMK A01 T00850084  RH  100%=      5-min Rain = 0
KAMH 160933Z 01006KT 09/08 A2989 RMK A01 T00850084  RH  099%=      5-min Rain = 0
KAMH 160934Z 02004KT 09/08 A2989 RMK A01 T00850084  RH  099%=      5-min Rain = 0
KAMH 160935Z 02006KT 09/08 A2989 RMK A01 T00850084  RH  099%=      5-min Rain = 0
KAMH 160936Z 03005KT 09/08 A2989 RMK A01 T00850084  RH  099%=      5-min Rain = 0
KAMH 160937Z 02007KT 09/08 A2989 RMK A01 T00850084  RH  099%=      5-min Rain = 0
KAMH 160938Z 03007KT 09/08 A2989 RMK A01 T00850084  RH  099%=      5-min Rain = 0
KAMH 160939Z 02007KT 08/08 A2989 RMK A01 T00840083  RH  099%=      5-min Rain = 0
KAMH 160940Z 02007KT 08/08 A2989 RMK A01 T00840083  RH  099%=      5-min Rain = 0
KAMH 160941Z 02008KT 08/08 A2989 RMK A01 T00840083  RH  099%=      5-min Rain = 0
KAMH 160942Z 02008KT 08/08 A2989 RMK A01 T00840083  RH  099%=      5-min Rain = 0
KAMH 160943Z 02007KT 08/08 A2989 RMK A01 T00840083  RH  099%=      5-min Rain = 0
KAMH 160944Z 02007KT 08/08 A2989 RMK A01 T00840083  RH  099%=      5-min Rain = 0
KAMH 160945Z 02007KT 08/08 A2989 RMK A01 T00840083  RH  099%=      5-min Rain = 0
KAMH 160946Z 02008KT 08/08 A2989 RMK A01 T00840083  RH  099%=      5-min Rain = 0
KAMH 160947Z 02007KT 08/08 A2989 RMK A01 T00840083  RH  099%=      5-min Rain = 0
KAMH 160948Z 02008KT 08/08 A2989 RMK A01 T00840083  RH  099%=      5-min Rain = 0
KAMH 160949Z 02007KT 08/08 A2989 RMK A01 T00840083  RH  099%=      5-min Rain = 0
KAMH 160950Z 02007KT 08/08 A2989 RMK A01 T00840083  RH  099%=      5-min Rain = 0
KAMH 160951Z 02007KT 08/08 A2989 RMK A01 T00840083  RH  099%=      5-min Rain = 0
KAMH 160952Z 02007KT 08/08 A2989 RMK A01 T00840083  RH  099%=      5-min Rain = 0
KAMH 160953Z 02006KT 08/08 A2989 RMK A01 T00840083  RH  099%=      5-min Rain = 0
KAMH 160954Z 02006KT 08/08 A2989 RMK A01 T00840083  RH  099%=      5-min Rain = 0
KAMH 160955Z 02006KT 08/08 A2989 RMK A01 T00840083  RH  099%=      5-min Rain = 0
KAMH 160956Z 02006KT 08/08 A2989 RMK A01 T00840083  RH  099%=      5-min Rain = 0
KAMH 160957Z 02007KT 08/08 A2989 RMK A01 T00840083  RH  099%=      5-min Rain = 0
KAMH 160958Z 03005KT 08/08 A2989 RMK A01 T00840083  RH  099%=      5-min Rain = 0
KAMH 160959Z 03006KT 08/08 A2989 RMK A01 T00840082  RH  099%=      5-min Rain = 0
KAMH 161000Z 03005KT 08/08 A2989 RMK A01 T00840082  RH  099%=      5-min Rain = 0
KAMH 161001Z 03005KT 08/08 A2989 RMK A01 T00830082  RH  099%=      5-min Rain = 0
KAMH 161002Z 04006KT 08/08 A2989 RMK A01 T00830082  RH  099%=      5-min Rain = 0
KAMH 161003Z 04006KT 08/08 A2989 RMK A01 T00830082  RH  099%=      5-min Rain = 0
KAMH 161004Z 05006KT 08/08 A2989 RMK A01 T00830082  RH  099%=      5-min Rain = 0
KAMH 161005Z 04007KT 08/08 A2989 RMK A01 T00820081  RH  099%=      5-min Rain = 0
KAMH 161006Z 04007KT 08/08 A2989 RMK A01 T00820080  RH  099%=      5-min Rain = 0
KAMH 161007Z 04006KT 08/08 A2989 RMK A01 T00810079  RH  099%=      5-min Rain = 0
KAMH 161008Z 03006KT 08/08 A2989 RMK A01 T00810079  RH  099%=      5-min Rain = 0
KAMH 161009Z 03007KT 08/08 A2988 RMK A01 T00810079  RH  099%=      5-min Rain = 0
KAMH 161010Z 04005KT 08/08 A2988 RMK A01 T00810079  RH  099%=      5-min Rain = 0
KAMH 161011Z 04005KT 08/08 A2988 RMK A01 T00810079  RH  099%=      5-min Rain = 0
KAMH 161012Z 04007KT 08/08 A2989 RMK A01 T00800079  RH  099%=      5-min Rain = 0
KAMH 161013Z 04007KT 08/08 A2988 RMK A01 T00800079  RH  099%=      5-min Rain = 0
KAMH 161014Z 04007KT 08/08 A2988 RMK A01 T00790078  RH  099%=      5-min Rain = 0
KAMH 161015Z 05007KT 08/08 A2988 RMK A01 T00790077  RH  099%=      5-min Rain = 0
KAMH 161016Z 05006KT 08/08 A2988 RMK A01 T00790077  RH  099%=      5-min Rain = 0
KAMH 161017Z 05006KT 08/08 A2988 RMK A01 T00790077  RH  099%=      5-min Rain = 0
KAMH 161018Z 05006KT 08/08 A2988 RMK A01 T00780077  RH  099%=      5-min Rain = 0
KAMH 161019Z 04006KT 08/08 A2988 RMK A01 T00780077  RH  099%=      5-min Rain = 0
KAMH 161020Z 04005KT 08/08 A2988 RMK A01 T00780077  RH  099%=      5-min Rain = 0
KAMH 161021Z 04005KT 08/08 A2988 RMK A01 T00780077  RH  099%=      5-min Rain = 0
KAMH 161022Z 04004KT 08/08 A2988 RMK A01 T00780077  RH  099%=      5-min Rain = 0
KAMH 161023Z 04005KT 08/08 A2988 RMK A01 T00780077  RH  099%=      5-min Rain = 0
KAMH 161024Z 04004KT 08/08 A2988 RMK A01 T00780077  RH  099%=      5-min Rain = 0
KAMH 161025Z 04005KT 08/08 A2988 RMK A01 T00780077  RH  099%=      5-min Rain = 0
KAMH 161026Z 05005KT 08/08 A2988 RMK A01 T00780077  RH  099%=      5-min Rain = 0
KAMH 161027Z 06005KT 08/08 A2988 RMK A01 T00780077  RH  099%=      5-min Rain = 0
KAMH 161028Z 05005KT 08/08 A2988 RMK A01 T00780077  RH  099%=      5-min Rain = 0
KAMH 161029Z 05005KT 08/08 A2988 RMK A01 T00780077  RH  099%=      5-min Rain = 0
KAMH 161030Z 06004KT 08/08 A2988 RMK A01 T00780077  RH  099%=      5-min Rain = 0
KAMH 161031Z 06004KT 08/08 A2988 RMK A01 T00780077  RH  099%=      5-min Rain = 0
KAMH 161032Z 06005KT 08/08 A2988 RMK A01 T00780077  RH  099%=      5-min Rain = 0
KAMH 161033Z 06004KT 08/08 A2988 RMK A01 T00780077  RH  099%=      5-min Rain = 0
KAMH 161034Z 07005KT 08/08 A2988 RMK A01 T00780077  RH  099%=      5-min Rain = 0
KAMH 161035Z 06004KT 08/08 A2988 RMK A01 T00780077  RH  099%=      5-min Rain = 0
KAMH 161036Z 07004KT 08/08 A2988 RMK A01 T00780077  RH  099%=      5-min Rain = 0
KAMH 161037Z 07004KT 08/08 A2988 RMK A01 T00780077  RH  099%=      5-min Rain = 0
KAMH 161038Z 07005KT 08/08 A2988 RMK A01 T00780077  RH  099%=      5-min Rain = 0
KAMH 161039Z 07006KT 08/08 A2988 RMK A01 T00780077  RH  099%=      5-min Rain = 0
KAMH 161040Z 06005KT 08/08 A2988 RMK A01 T00780077  RH  099%=      5-min Rain = 0
KAMH 161041Z 05005KT 08/08 A2988 RMK A01 T00780077  RH  099%=      5-min Rain = 0
KAMH 161042Z 06005KT 08/08 A2988 RMK A01 T00770076  RH  099%=      5-min Rain = 0
KAMH 161043Z 06004KT 08/08 A2988 RMK A01 T00770076  RH  099%=      5-min Rain = 0
KAMH 161044Z 08004KT 08/08 A2988 RMK A01 T00760075  RH  099%=      5-min Rain = 0
KAMH 161045Z 08004KT 08/08 A2988 RMK A01 T00760075  RH  099%=      5-min Rain = 0
KAMH 161046Z 07005KT 08/08 A2988 RMK A01 T00760076  RH  099%=      5-min Rain = 0
KAMH 161047Z 07005KT 08/08 A2988 RMK A01 T00760075  RH  099%=      5-min Rain = 0
KAMH 161048Z 07005KT 08/08 A2988 RMK A01 T00760075  RH  099%=      5-min Rain = 0
KAMH 161049Z 08006KT 08/08 A2988 RMK A01 T00760075  RH  099%=      5-min Rain = 0
KAMH 161050Z 07005KT 08/08 A2988 RMK A01 T00750075  RH  099%=      5-min Rain = 0
KAMH 161051Z 09005KT 08/08 A2988 RMK A01 T00750075  RH  099%=      5-min Rain = 0
KAMH 161052Z 09005KT 08/08 A2988 RMK A01 T00760075  RH  100%=      5-min Rain = 0
KAMH 161053Z 08005KT 08/08 A2988 RMK A01 T00750075  RH  100%=      5-min Rain = 0
KAMH 161054Z 09006KT 08/08 A2988 RMK A01 T00760075  RH  100%=      5-min Rain = 0
KAMH 161055Z 09006KT 08/08 A2988 RMK A01 T00750075  RH  100%=      5-min Rain = 0
KAMH 161056Z 08005KT 08/07 A2988 RMK A01 T00750074  RH  099%=      5-min Rain = 0
KAMH 161057Z 08004KT 08/07 A2988 RMK A01 T00750074  RH  100%=      5-min Rain = 0
KAMH 161058Z 08004KT 08/07 A2988 RMK A01 T00750074  RH  100%=      5-min Rain = 0
KAMH 161059Z 08004KT 08/07 A2988 RMK A01 T00750074  RH  100%=      5-min Rain = 0
KAMH 161100Z 08003KT 08/07 A2988 RMK A01 T00750074  RH  100%=      5-min Rain = 0
KAMH 161101Z 09003KT 08/07 A2988 RMK A01 T00750074  RH  100%=      5-min Rain = 0
KAMH 161102Z 09002KT 08/07 A2988 RMK A01 T00750074  RH  100%=      5-min Rain = 0
KAMH 161103Z 09002KT 07/07 A2988 RMK A01 T00740074  RH  100%=      5-min Rain = 0
KAMH 161104Z 08003KT 07/07 A2988 RMK A01 T00740074  RH  100%=      5-min Rain = 0
KAMH 161105Z 09006KT 07/07 A2988 RMK A01 T00740074  RH  100%=      5-min Rain = 0
KAMH 161106Z 08005KT 08/07 A2988 RMK A01 T00750074  RH  100%=      5-min Rain = 0
KAMH 161107Z 08005KT 08/07 A2987 RMK A01 T00750074  RH  100%=      5-min Rain = 0
KAMH 161108Z 09005KT 08/07 A2987 RMK A01 T00750074  RH  100%=      5-min Rain = 0
KAMH 161109Z 09006KT 07/07 A2987 RMK A01 T00740074  RH  100%=      5-min Rain = 0
KAMH 161110Z 09006KT 07/07 A2987 RMK A01 T00740074  RH  100%=      5-min Rain = 0
KAMH 161111Z 10006KT 07/07 A2987 RMK A01 T00740073  RH  100%=      5-min Rain = 0
KAMH 161112Z 10005KT 07/07 A2987 RMK A01 T00740073  RH  100%=      5-min Rain = 0
KAMH 161113Z 10005KT 07/07 A2987 RMK A01 T00740073  RH  100%=      5-min Rain = 0
KAMH 161114Z 09004KT 07/07 A2987 RMK A01 T00730073  RH  100%=      5-min Rain = 0
KAMH 161115Z 09004KT 07/07 A2987 RMK A01 T00730073  RH  100%=      5-min Rain = 0
KAMH 161116Z 10005KT 07/07 A2987 RMK A01 T00730073  RH  100%=      5-min Rain = 0
KAMH 161117Z 11005KT 07/07 A2987 RMK A01 T00730073  RH  100%=      5-min Rain = 0
KAMH 161118Z 10005KT 07/07 A2987 RMK A01 T00730073  RH  100%=      5-min Rain = 0
KAMH 161119Z 11004KT 07/07 A2987 RMK A01 T00740074  RH  100%=      5-min Rain = 0
KAMH 161120Z 10005KT 07/07 A2988 RMK A01 T00740074  RH  100%=      5-min Rain = 0
KAMH 161121Z 10005KT 07/07 A2988 RMK A01 T00730073  RH  100%=      5-min Rain = 0
KAMH 161122Z 10005KT 07/07 A2988 RMK A01 T00730072  RH  100%=      5-min Rain = 0
KAMH 161123Z 10006KT 07/07 A2988 RMK A01 T00720071  RH  100%=      5-min Rain = 0
KAMH 161124Z 10006KT 07/07 A2988 RMK A01 T00720072  RH  100%=      5-min Rain = 0
KAMH 161125Z 09006KT 07/07 A2988 RMK A01 T00720072  RH  100%=      5-min Rain = 0
KAMH 161126Z 09005KT 07/07 A2988 RMK A01 T00720072  RH  100%=      5-min Rain = 0
KAMH 161127Z 08005KT 07/07 A2988 RMK A01 T00720072  RH  100%=      5-min Rain = 0
KAMH 161128Z 08005KT 07/07 A2988 RMK A01 T00720072  RH  100%=      5-min Rain = 0
KAMH 161129Z 08004KT 07/07 A2988 RMK A01 T00720072  RH  100%=      5-min Rain = 0
KAMH 161130Z 09004KT 07/07 A2988 RMK A01 T00720072  RH  100%=      5-min Rain = 0
KAMH 161131Z 07004KT 07/07 A2988 RMK A01 T00720072  RH  100%=      5-min Rain = 0
KAMH 161132Z 09004KT 07/07 A2988 RMK A01 T00720072  RH  100%=      5-min Rain = 0
KAMH 161133Z 09005KT 07/07 A2988 RMK A01 T00720072  RH  100%=      5-min Rain = 0
KAMH 161134Z 08005KT 07/07 A2988 RMK A01 T00720072  RH  100%=      5-min Rain = 0
KAMH 161135Z 08005KT 07/07 A2988 RMK A01 T00720072  RH  100%=      5-min Rain = 0
KAMH 161136Z 07005KT 07/07 A2989 RMK A01 T00710072  RH  100%=      5-min Rain = 0
KAMH 161137Z 07005KT 07/07 A2989 RMK A01 T00710071  RH  100%=      5-min Rain = 0
KAMH 161138Z 05005KT 07/07 A2989 RMK A01 T00710071  RH  100%=      5-min Rain = 0
KAMH 161139Z 07005KT 07/07 A2989 RMK A01 T00710071  RH  100%=      5-min Rain = 0
KAMH 161140Z 07004KT 07/07 A2989 RMK A01 T00710071  RH  100%=      5-min Rain = 0
KAMH 161141Z 07004KT 07/07 A2989 RMK A01 T00710071  RH  100%=      5-min Rain = 0
KAMH 161142Z 08004KT 07/07 A2989 RMK A01 T00710071  RH  100%=      5-min Rain = 0
KAMH 161143Z 07004KT 07/07 A2989 RMK A01 T00710071  RH  100%=      5-min Rain = 0
KAMH 161144Z 06004KT 07/07 A2989 RMK A01 T00720072  RH  100%=      5-min Rain = 0
KAMH 161145Z 06004KT 07/07 A2989 RMK A01 T00720072  RH  100%=      5-min Rain = 0
KAMH 161146Z 06005KT 07/07 A2989 RMK A01 T00720072  RH  100%=      5-min Rain = 0
KAMH 161147Z 06005KT 07/07 A2989 RMK A01 T00720072  RH  100%=      5-min Rain = 0
KAMH 161148Z 05005KT 07/07 A2989 RMK A01 T00720072  RH  100%=      5-min Rain = 0
KAMH 161149Z 06004KT 07/07 A2989 RMK A01 T00720072  RH  100%=      5-min Rain = 0
KAMH 161150Z 07004KT 07/07 A2989 RMK A01 T00720072  RH  100%=      5-min Rain = 0
KAMH 161151Z 06003KT 07/07 A2989 RMK A01 T00720072  RH  100%=      5-min Rain = 0
KAMH 161152Z 04003KT 07/07 A2989 RMK A01 T00720072  RH  100%=      5-min Rain = 0
KAMH 161153Z 05003KT 07/07 A2989 RMK A01 T00720072  RH  100%=      5-min Rain = 0
KAMH 161154Z 06004KT 07/07 A2989 RMK A01 T00720072  RH  100%=      5-min Rain = 0
KAMH 161155Z 07004KT 07/07 A2989 RMK A01 T00720072  RH  100%=      5-min Rain = 0
KAMH 161156Z 08004KT 07/07 A2989 RMK A01 T00720072  RH  100%=      5-min Rain = 0
KAMH 161157Z 08003KT 07/07 A2989 RMK A01 T00720072  RH  100%=      5-min Rain = 0
KAMH 161158Z 09003KT 07/07 A2989 RMK A01 T00720072  RH  100%=      5-min Rain = 0
KAMH 161159Z 10003KT 07/07 A2989 RMK A01 T00720072  RH  100%=      5-min Rain = 0
KAMH 161200Z 10002KT 07/07 A2989 RMK A01 T00710071  RH  100%=      5-min Rain = 0
KAMH 161201Z 12002KT 07/07 A2989 RMK A01 T00710071  RH  100%=      5-min Rain = 0
KAMH 161202Z 12003KT 07/07 A2989 RMK A01 T00710071  RH  100%=      5-min Rain = 0
KAMH 161203Z 12002KT 07/07 A2988 RMK A01 T00710071  RH  100%=      5-min Rain = 0
KAMH 161204Z 12003KT 07/07 A2988 RMK A01 T00710071  RH  100%=      5-min Rain = 0
KAMH 161205Z 13003KT 07/07 A2988 RMK A01 T00710071  RH  100%=      5-min Rain = 0
KAMH 161206Z 13003KT 07/07 A2988 RMK A01 T00700070  RH  100%=      5-min Rain = 0
KAMH 161207Z 13003KT 07/07 A2988 RMK A01 T00700070  RH  100%=      5-min Rain = 0
KAMH 161208Z 12003KT 07/07 A2988 RMK A01 T00700070  RH  100%=      5-min Rain = 0
KAMH 161209Z 12002KT 07/07 A2988 RMK A01 T00700070  RH  100%=      5-min Rain = 0
KAMH 161210Z 11002KT 07/07 A2988 RMK A01 T00700070  RH  100%=      5-min Rain = 0
KAMH 161211Z 10002KT 07/07 A2988 RMK A01 T00700070  RH  100%=      5-min Rain = 0
KAMH 161212Z 10001KT 07/07 A2988 RMK A01 T00700070  RH  100%=      5-min Rain = 0
KAMH 161213Z 11002KT 07/07 A2988 RMK A01 T00700070  RH  100%=      5-min Rain = 0
KAMH 161214Z 09001KT 07/07 A2988 RMK A01 T00700070  RH  100%=      5-min Rain = 0
KAMH 161215Z 09000KT 07/07 A2989 RMK A01 T00700070  RH  100%=      5-min Rain = 0
KAMH 161216Z 09001KT 07/07 A2989 RMK A01 T00700070  RH  100%=      5-min Rain = 0
KAMH 161217Z 09002KT 07/07 A2988 RMK A01 T00700070  RH  100%=      5-min Rain = 0
KAMH 161218Z 09001KT 07/07 A2988 RMK A01 T00700070  RH  100%=      5-min Rain = 0
KAMH 161219Z 09001KT 07/07 A2988 RMK A01 T00700070  RH  100%=      5-min Rain = 0
KAMH 161220Z 08001KT 07/07 A2988 RMK A01 T00700070  RH  100%=      5-min Rain = 0
KAMH 161221Z 08000KT 07/07 A2988 RMK A01 T00700070  RH  100%=      5-min Rain = 0
KAMH 161222Z 14001KT 07/07 A2988 RMK A01 T00700070  RH  100%=      5-min Rain = 0
KAMH 161223Z 14001KT 07/07 A2988 RMK A01 T00700070  RH  100%=      5-min Rain = 0
KAMH 161224Z 14001KT 07/07 A2988 RMK A01 T00700070  RH  100%=      5-min Rain = 0
KAMH 161225Z 13001KT 07/07 A2988 RMK A01 T00710071  RH  100%=      5-min Rain = 0
KAMH 161226Z 13002KT 07/07 A2989 RMK A01 T00710071  RH  100%=      5-min Rain = 0
KAMH 161227Z 14002KT 07/07 A2989 RMK A01 T00710071  RH  100%=      5-min Rain = 0
KAMH 161228Z 16002KT 07/07 A2989 RMK A01 T00710071  RH  100%=      5-min Rain = 0
KAMH 161229Z 15001KT 07/07 A2989 RMK A01 T00710071  RH  100%=      5-min Rain = 0
KAMH 161230Z 17000KT 07/07 A2989 RMK A01 T00700070  RH  100%=      5-min Rain = 0
KAMH 161231Z 20001KT 07/07 A2989 RMK A01 T00700070  RH  100%=      5-min Rain = 0
KAMH 161232Z 22002KT 07/07 A2989 RMK A01 T00700070  RH  100%=      5-min Rain = 0
KAMH 161233Z 20001KT 07/07 A2989 RMK A01 T00700070  RH  100%=      5-min Rain = 0
KAMH 161234Z 22001KT 07/07 A2989 RMK A01 T00700070  RH  100%=      5-min Rain = 0
KAMH 161235Z 25001KT 07/07 A2989 RMK A01 T00700070  RH  100%=      5-min Rain = 0
KAMH 161236Z 25001KT 07/07 A2989 RMK A01 T00700070  RH  100%=      5-min Rain = 0
KAMH 161237Z 25000KT 07/07 A2989 RMK A01 T00700070  RH  100%=      5-min Rain = 0
KAMH 161238Z 25000KT 07/07 A2989 RMK A01 T00700070  RH  100%=      5-min Rain = 0
KAMH 161239Z 25000KT 07/07 A2989 RMK A01 T00700070  RH  100%=      5-min Rain = 0
KAMH 161240Z 00000KT 07/07 A2989 RMK A01 T00700070  RH  100%=      5-min Rain = 0
KAMH 161241Z 00000KT 07/07 A2989 RMK A01 T00700070  RH  100%=      5-min Rain = 0
KAMH 161242Z 00000KT 07/07 A299 RMK A01 T00700070  RH  100%=      5-min Rain = 0
KAMH 161243Z 00000KT 07/07 A299 RMK A01 T00700070  RH  100%=      5-min Rain = 0
KAMH 161244Z 00000KT 07/07 A299 RMK A01 T00700070  RH  100%=      5-min Rain = 0
KAMH 161245Z 00000KT 07/07 A299 RMK A01 T00700070  RH  100%=      5-min Rain = 0
KAMH 161246Z 06000KT 07/07 A299 RMK A01 T00700070  RH  100%=      5-min Rain = 0
KAMH 161247Z 06000KT 07/07 A299 RMK A01 T00710071  RH  100%=      5-min Rain = 0
KAMH 161248Z 03001KT 07/07 A299 RMK A01 T00710071  RH  100%=      5-min Rain = 0
KAMH 161249Z 02001KT 07/07 A299 RMK A01 T00710071  RH  100%=      5-min Rain = 0
KAMH 161250Z 00001KT 07/07 A299 RMK A01 T00710071  RH  100%=      5-min Rain = 0
KAMH 161251Z 02001KT 07/07 A299 RMK A01 T00710071  RH  100%=      5-min Rain = 0
KAMH 161252Z 07001KT 07/07 A299 RMK A01 T00710071  RH  100%=      5-min Rain = 0
KAMH 161253Z 08002KT 07/07 A299 RMK A01 T00710071  RH  100%=      5-min Rain = 0
KAMH 161254Z 07001KT 07/07 A299 RMK A01 T00710071  RH  100%=      5-min Rain = 0
KAMH 161255Z 05001KT 07/07 A299 RMK A01 T00710071  RH  100%=      5-min Rain = 0
KAMH 161256Z 03001KT 07/07 A299 RMK A01 T00710071  RH  100%=      5-min Rain = 0
KAMH 161257Z 05002KT 07/07 A2991 RMK A01 T00710071  RH  100%=      5-min Rain = 0
KAMH 161258Z 04003KT 07/07 A2991 RMK A01 T00710071  RH  100%=      5-min Rain = 0
KAMH 161259Z 03003KT 07/07 A2991 RMK A01 T00710071  RH  100%=      5-min Rain = 0
KAMH 161300Z 03002KT 07/07 A2991 RMK A01 T00710071  RH  100%=      5-min Rain = 0
KAMH 161301Z 02002KT 07/07 A2991 RMK A01 T00710071  RH  100%=      5-min Rain = 0
KAMH 161302Z 03002KT 07/07 A2991 RMK A01 T00710071  RH  100%=      5-min Rain = 0
KAMH 161303Z 04002KT 07/07 A2991 RMK A01 T00710071  RH  100%=      5-min Rain = 0
KAMH 161304Z 05003KT 07/07 A2991 RMK A01 T00710071  RH  100%=      5-min Rain = 0
KAMH 161305Z 05002KT 07/07 A2991 RMK A01 T00710071  RH  100%=      5-min Rain = 0
KAMH 161306Z 05001KT 07/07 A2991 RMK A01 T00710071  RH  100%=      5-min Rain = 0
KAMH 161307Z 07002KT 07/07 A2991 RMK A01 T00710071  RH  100%=      5-min Rain = 0
KAMH 161308Z 07002KT 07/07 A2991 RMK A01 T00710071  RH  100%=      5-min Rain = 0
KAMH 161309Z 04003KT 07/07 A2991 RMK A01 T00710071  RH  100%=      5-min Rain = 0
KAMH 161310Z 02003KT 07/07 A2991 RMK A01 T00720072  RH  100%=      5-min Rain = 0
KAMH 161311Z 02003KT 07/07 A2991 RMK A01 T00720072  RH  100%=      5-min Rain = 0
KAMH 161312Z 01002KT 07/07 A2991 RMK A01 T00720072  RH  100%=      5-min Rain = 0
KAMH 161313Z 03003KT 07/07 A2991 RMK A01 T00720072  RH  100%=      5-min Rain = 0
KAMH 161314Z 03002KT 07/07 A2991 RMK A01 T00720072  RH  100%=      5-min Rain = 0
KAMH 161315Z 03002KT 07/07 A2991 RMK A01 T00720072  RH  100%=      5-min Rain = 0
KAMH 161316Z 04003KT 07/07 A2991 RMK A01 T00720072  RH  100%=      5-min Rain = 0
KAMH 161317Z 04003KT 07/07 A2991 RMK A01 T00720072  RH  100%=      5-min Rain = 0
KAMH 161318Z 04002KT 07/07 A2991 RMK A01 T00720072  RH  100%=      5-min Rain = 0
KAMH 161319Z 03002KT 07/07 A2992 RMK A01 T00710071  RH  100%=      5-min Rain = 0
KAMH 161320Z 03002KT 07/07 A2992 RMK A01 T00710071  RH  100%=      5-min Rain = 0
KAMH 161321Z 34003KT 07/07 A2992 RMK A01 T00720072  RH  100%=      5-min Rain = 0
KAMH 161322Z 35004KT 07/07 A2992 RMK A01 T00720072  RH  100%=      5-min Rain = 0
KAMH 161323Z 35004KT 07/07 A2992 RMK A01 T00720072  RH  100%=      5-min Rain = 0
KAMH 161324Z 34004KT 07/07 A2992 RMK A01 T00730073  RH  100%=      5-min Rain = 0
KAMH 161325Z 34004KT 07/07 A2992 RMK A01 T00730073  RH  100%=      5-min Rain = 0
KAMH 161326Z 35003KT 07/07 A2992 RMK A01 T00730073  RH  100%=      5-min Rain = 0
KAMH 161327Z 34003KT 07/07 A2992 RMK A01 T00730073  RH  100%=      5-min Rain = 0
KAMH 161328Z 33004KT 07/07 A2992 RMK A01 T00730073  RH  100%=      5-min Rain = 0
KAMH 161329Z 32003KT 07/07 A2992 RMK A01 T00720072  RH  100%=      5-min Rain = 0
KAMH 161330Z 33004KT 07/07 A2992 RMK A01 T00720072  RH  100%=      5-min Rain = 0
KAMH 161331Z 33004KT 07/07 A2992 RMK A01 T00720072  RH  100%=      5-min Rain = 0
KAMH 161332Z 34005KT 07/07 A2992 RMK A01 T00730073  RH  100%=      5-min Rain = 0
KAMH 161333Z 34007KT 07/07 A2992 RMK A01 T00730073  RH  100%=      5-min Rain = 0
KAMH 161334Z 34005KT 07/07 A2992 RMK A01 T00730073  RH  100%=      5-min Rain = 0
KAMH 161335Z 33005KT 07/07 A2992 RMK A01 T00730073  RH  100%=      5-min Rain = 0
KAMH 161336Z 33005KT 07/07 A2992 RMK A01 T00730073  RH  100%=      5-min Rain = 0
KAMH 161337Z 32006KT 07/07 A2992 RMK A01 T00730073  RH  100%=      5-min Rain = 0
KAMH 161338Z 33007KT 07/07 A2992 RMK A01 T00730073  RH  100%=      5-min Rain = 0
KAMH 161339Z 33007KT 07/07 A2992 RMK A01 T00740074  RH  100%=      5-min Rain = 0
KAMH 161340Z 33006KT 08/08 A2993 RMK A01 T00750075  RH  100%=      5-min Rain = 0
KAMH 161341Z 32006KT 08/08 A2993 RMK A01 T00750075  RH  100%=      5-min Rain = 0
KAMH 161342Z 32006KT 08/08 A2993 RMK A01 T00750075  RH  100%=      5-min Rain = 0
KAMH 161343Z 33005KT 08/08 A2993 RMK A01 T00750075  RH  100%=      5-min Rain = 0
KAMH 161344Z 32007KT 08/08 A2993 RMK A01 T00750075  RH  100%=      5-min Rain = 0
KAMH 161345Z 32005KT 07/07 A2993 RMK A01 T00740074  RH  100%=      5-min Rain = 0
KAMH 161346Z 33004KT 07/07 A2993 RMK A01 T00740074  RH  100%=      5-min Rain = 0
KAMH 161347Z 31006KT 08/08 A2993 RMK A01 T00750075  RH  100%=      5-min Rain = 0
KAMH 161348Z 32008KT 08/08 A2993 RMK A01 T00750075  RH  100%=      5-min Rain = 0
KAMH 161349Z 32008KT 08/08 A2993 RMK A01 T00750075  RH  100%=      5-min Rain = 0
KAMH 161350Z 32009KT 07/07 A2994 RMK A01 T00740074  RH  100%=      5-min Rain = 0
KAMH 161351Z 32008KT 07/07 A2994 RMK A01 T00730073  RH  100%=      5-min Rain = 0
KAMH 161352Z 32008KT 07/07 A2994 RMK A01 T00730073  RH  100%=      5-min Rain = 0
KAMH 161353Z 31007KT 07/07 A2994 RMK A01 T00730073  RH  100%=      5-min Rain = 0
KAMH 161354Z 31006KT 07/07 A2994 RMK A01 T00730073  RH  100%=      5-min Rain = 0
KAMH 161355Z 32006KT 07/07 A2994 RMK A01 T00730073  RH  100%=      5-min Rain = 0
KAMH 161356Z 33007KT 07/07 A2994 RMK A01 T00730073  RH  100%=      5-min Rain = 0
KAMH 161357Z 33006KT 07/07 A2994 RMK A01 T00730073  RH  100%=      5-min Rain = 0
KAMH 161358Z 33007KT 07/07 A2994 RMK A01 T00730073  RH  100%=      5-min Rain = 0
KAMH 161359Z 33007KT 07/07 A2994 RMK A01 T00740074  RH  100%=      5-min Rain = 0
KAMH 161400Z 34008KT 07/07 A2994 RMK A01 T00740074  RH  100%=      5-min Rain = 0
KAMH 161401Z 33008KT 07/07 A2994 RMK A01 T00740074  RH  100%=      5-min Rain = 0
KAMH 161402Z 33007KT 08/08 A2994 RMK A01 T00750075  RH  100%=      5-min Rain = 0
KAMH 161403Z 33007KT 08/08 A2994 RMK A01 T00750075  RH  100%=      5-min Rain = 0
KAMH 161404Z 34006KT 07/07 A2994 RMK A01 T00740074  RH  100%=      5-min Rain = 0
KAMH 161405Z 33006KT 07/07 A2994 RMK A01 T00740074  RH  100%=      5-min Rain = 0
KAMH 161406Z 34006KT 07/07 A2994 RMK A01 T00740074  RH  100%=      5-min Rain = 0
KAMH 161407Z 34006KT 08/08 A2994 RMK A01 T00750075  RH  100%=      5-min Rain = 0
KAMH 161408Z 34006KT 08/08 A2994 RMK A01 T00750075  RH  100%=      5-min Rain = 0
KAMH 161409Z 33007KT 08/08 A2994 RMK A01 T00760076  RH  100%=      5-min Rain = 0
KAMH 161410Z 33008KT 08/08 A2994 RMK A01 T00760076  RH  100%=      5-min Rain = 0
KAMH 161411Z 33007KT 08/08 A2994 RMK A01 T00760076  RH  100%=      5-min Rain = 0
KAMH 161412Z 32008KT 08/08 A2994 RMK A01 T00760076  RH  100%=      5-min Rain = 0
KAMH 161413Z 34006KT 08/08 A2994 RMK A01 T00760076  RH  100%=      5-min Rain = 0
KAMH 161414Z 34006KT 08/08 A2994 RMK A01 T00770077  RH  100%=      5-min Rain = 0
KAMH 161415Z 35007KT 08/08 A2994 RMK A01 T00770077  RH  100%=      5-min Rain = 0
KAMH 161416Z 35006KT 08/08 A2994 RMK A01 T00760076  RH  100%=      5-min Rain = 0
KAMH 161417Z 35007KT 08/08 A2994 RMK A01 T00760076  RH  100%=      5-min Rain = 0
KAMH 161418Z 34007KT 08/08 A2994 RMK A01 T00760076  RH  100%=      5-min Rain = 0
KAMH 161419Z 36007KT 08/08 A2994 RMK A01 T00770077  RH  100%=      5-min Rain = 0
KAMH 161420Z 35007KT 08/08 A2995 RMK A01 T00770077  RH  100%=      5-min Rain = 0
KAMH 161421Z 35007KT 08/08 A2995 RMK A01 T00780078  RH  100%=      5-min Rain = 0
KAMH 161422Z 00006KT 08/08 A2995 RMK A01 T00780078  RH  100%=      5-min Rain = 0
KAMH 161423Z 00007KT 08/08 A2995 RMK A01 T00780078  RH  100%=      5-min Rain = 0
KAMH 161424Z 36007KT 08/08 A2995 RMK A01 T00770077  RH  100%=      5-min Rain = 0
KAMH 161425Z 00008KT 08/08 A2995 RMK A01 T00770077  RH  100%=      5-min Rain = 0
KAMH 161426Z 00007KT 08/08 A2995 RMK A01 T00770077  RH  100%=      5-min Rain = 0
KAMH 161427Z 00007KT 08/08 A2995 RMK A01 T00770077  RH  100%=      5-min Rain = 0
KAMH 161428Z 36007KT 08/08 A2995 RMK A01 T00760076  RH  100%=      5-min Rain = 0
KAMH 161429Z 00008KT 08/08 A2995 RMK A01 T00760076  RH  100%=      5-min Rain = 0
KAMH 161430Z 36007KT 08/08 A2995 RMK A01 T00760076  RH  100%=      5-min Rain = 0
KAMH 161431Z 35007KT 08/08 A2995 RMK A01 T00760076  RH  100%=      5-min Rain = 0
KAMH 161432Z 35009KT 08/08 A2995 RMK A01 T00770077  RH  100%=      5-min Rain = 0
KAMH 161433Z 35008KT 08/08 A2995 RMK A01 T00770077  RH  100%=      5-min Rain = 0
KAMH 161434Z 35008KT 08/08 A2995 RMK A01 T00770077  RH  100%=      5-min Rain = 0
KAMH 161435Z 35008KT 08/08 A2995 RMK A01 T00780078  RH  100%=      5-min Rain = 0
KAMH 161436Z 00008KT 08/08 A2995 RMK A01 T00780078  RH  100%=      5-min Rain = 0
KAMH 161437Z 00007KT 08/08 A2995 RMK A01 T00780077  RH  100%=      5-min Rain = 0
KAMH 161438Z 35008KT 08/08 A2995 RMK A01 T00770076  RH  100%=      5-min Rain = 0
KAMH 161439Z 35007KT 08/08 A2995 RMK A01 T00770076  RH  100%=      5-min Rain = 0
KAMH 161440Z 00009KT 08/08 A2995 RMK A01 T00770077  RH  100%=      5-min Rain = 0
KAMH 161441Z 00009KT 08/08 A2995 RMK A01 T00770076  RH  100%=      5-min Rain = 0
KAMH 161442Z 00007KT 08/08 A2995 RMK A01 T00770076  RH  100%=      5-min Rain = 0
KAMH 161443Z 00008KT 08/08 A2995 RMK A01 T00770077  RH  100%=      5-min Rain = 0
KAMH 161444Z 00008KT 08/08 A2995 RMK A01 T00770077  RH  100%=      5-min Rain = 0
KAMH 161445Z 00008KT 08/08 A2995 RMK A01 T00770076  RH  100%=      5-min Rain = 0
KAMH 161446Z 01006KT 08/08 A2995 RMK A01 T00760076  RH  100%=      5-min Rain = 0
KAMH 161447Z 00007KT 08/08 A2995 RMK A01 T00770076  RH  100%=      5-min Rain = 0
KAMH 161448Z 00009KT 08/08 A2995 RMK A01 T00770077  RH  100%=      5-min Rain = 0
KAMH 161449Z 00008KT 08/08 A2995 RMK A01 T00760076  RH  100%=      5-min Rain = 0
KAMH 161450Z 01007KT 08/08 A2995 RMK A01 T00760075  RH  099%=      5-min Rain = 0
KAMH 161451Z 01007KT 08/08 A2995 RMK A01 T00760075  RH  100%=      5-min Rain = 0
KAMH 161452Z 01006KT 08/08 A2995 RMK A01 T00760075  RH  100%=      5-min Rain = 0
KAMH 161453Z 01008KT 08/08 A2995 RMK A01 T00760076  RH  100%=      5-min Rain = 0
KAMH 161454Z 01007KT 08/08 A2995 RMK A01 T00760076  RH  100%=      5-min Rain = 0
KAMH 161455Z 01006KT 08/08 A2995 RMK A01 T00760076  RH  100%=      5-min Rain = 0
KAMH 161456Z 01007KT 08/08 A2995 RMK A01 T00770076  RH  100%=      5-min Rain = 0
KAMH 161457Z 01007KT 08/08 A2995 RMK A01 T00770076  RH  100%=      5-min Rain = 0
KAMH 161458Z 00006KT 08/08 A2995 RMK A01 T00770076  RH  099%=      5-min Rain = 0
KAMH 161459Z 00007KT 08/08 A2995 RMK A01 T00770076  RH  099%=      5-min Rain = 0
KAMH 161500Z 36008KT 08/08 A2996 RMK A01 T00770076  RH  099%=      5-min Rain = 0
KAMH 161501Z 00008KT 08/08 A2996 RMK A01 T00780077  RH  100%=      5-min Rain = 0
KAMH 161502Z 00006KT 08/08 A2996 RMK A01 T00780077  RH  099%=      5-min Rain = 0
KAMH 161503Z 00005KT 08/08 A2995 RMK A01 T00780077  RH  099%=      5-min Rain = 0
KAMH 161504Z 03006KT 08/08 A2995 RMK A01 T00790079  RH  100%=      5-min Rain = 0
KAMH 161505Z 02006KT 08/08 A2995 RMK A01 T00800079  RH  100%=      5-min Rain = 0
KAMH 161506Z 02009KT 08/08 A2996 RMK A01 T00800080  RH  100%=      5-min Rain = 0
KAMH 161507Z 02009KT 08/08 A2996 RMK A01 T00790077  RH  099%=      5-min Rain = 0
KAMH 161508Z 02009KT 08/08 A2996 RMK A01 T00790077  RH  099%=      5-min Rain = 0
KAMH 161509Z 02009KT 08/08 A2996 RMK A01 T00790077  RH  099%=      5-min Rain = 0
KAMH 161510Z 03009KT 08/08 A2996 RMK A01 T00790077  RH  099%=      5-min Rain = 0
KAMH 161511Z 03008KT 08/08 A2996 RMK A01 T00790077  RH  099%=      5-min Rain = 0
KAMH 161512Z 03007KT 08/08 A2996 RMK A01 T00790077  RH  099%=      5-min Rain = 0
KAMH 161513Z 03006KT 08/08 A2995 RMK A01 T00790078  RH  099%=      5-min Rain = 0
KAMH 161514Z 03006KT 08/08 A2995 RMK A01 T00800079  RH  100%=      5-min Rain = 0
KAMH 161515Z 03007KT 08/08 A2995 RMK A01 T00800079  RH  099%=      5-min Rain = 0
KAMH 161516Z 02006KT 08/08 A2995 RMK A01 T00810080  RH  099%=      5-min Rain = 0
KAMH 161517Z 01006KT 08/08 A2995 RMK A01 T00820081  RH  100%=      5-min Rain = 0
KAMH 161518Z 01006KT 08/08 A2995 RMK A01 T00810079  RH  099%=      5-min Rain = 0
KAMH 161519Z 02007KT 08/08 A2995 RMK A01 T00800077  RH  098%=      5-min Rain = 0
KAMH 161520Z 01006KT 08/08 A2995 RMK A01 T00790077  RH  098%=      5-min Rain = 0
KAMH 161521Z 02006KT 08/08 A2996 RMK A01 T00800078  RH  099%=      5-min Rain = 0
KAMH 161522Z 02007KT 08/08 A2995 RMK A01 T00800078  RH  099%=      5-min Rain = 0
KAMH 161523Z 01007KT 08/08 A2995 RMK A01 T00800077  RH  099%=      5-min Rain = 0
KAMH 161524Z 01006KT 08/08 A2995 RMK A01 T00800077  RH  098%=      5-min Rain = 0
KAMH 161525Z 02008KT 08/08 A2995 RMK A01 T00800078  RH  099%=      5-min Rain = 0
KAMH 161526Z 01007KT 08/08 A2996 RMK A01 T00810079  RH  099%=      5-min Rain = 0
KAMH 161527Z 01007KT 08/08 A2996 RMK A01 T00810079  RH  099%=      5-min Rain = 0
KAMH 161528Z 01007KT 08/08 A2996 RMK A01 T00810079  RH  099%=      5-min Rain = 0
KAMH 161529Z 01008KT 08/08 A2995 RMK A01 T00810080  RH  099%=      5-min Rain = 0
KAMH 161530Z 02007KT 08/08 A2995 RMK A01 T00820079  RH  099%=      5-min Rain = 0
KAMH 161531Z 02009KT 08/08 A2995 RMK A01 T00820080  RH  099%=      5-min Rain = 0
KAMH 161532Z 01009KT 08/08 A2995 RMK A01 T00810078  RH  098%=      5-min Rain = 0
KAMH 161533Z 01008KT 08/08 A2996 RMK A01 T00800076  RH  097%=      5-min Rain = 0
KAMH 161534Z 01008KT 08/08 A2996 RMK A01 T00790075  RH  097%=      5-min Rain = 0
KAMH 161535Z 01007KT 08/08 A2996 RMK A01 T00790076  RH  098%=      5-min Rain = 0
KAMH 161536Z 02008KT 08/08 A2996 RMK A01 T00790076  RH  098%=      5-min Rain = 0
KAMH 161537Z 01008KT 08/08 A2996 RMK A01 T00800076  RH  098%=      5-min Rain = 0
KAMH 161538Z 01008KT 08/08 A2996 RMK A01 T00800077  RH  098%=      5-min Rain = 0
KAMH 161539Z 02007KT 08/08 A2996 RMK A01 T00810078  RH  098%=      5-min Rain = 0
KAMH 161540Z 02005KT 08/08 A2995 RMK A01 T00820079  RH  098%=      5-min Rain = 0
KAMH 161541Z 36005KT 08/08 A2995 RMK A01 T00840081  RH  098%=      5-min Rain = 0
KAMH 161542Z 35005KT 08/08 A2995 RMK A01 T00840079  RH  097%=      5-min Rain = 0
KAMH 161543Z 35004KT 08/08 A2995 RMK A01 T00840079  RH  096%=      5-min Rain = 0
KAMH 161544Z 35004KT 08/08 A2995 RMK A01 T00840078  RH  096%=      5-min Rain = 0
KAMH 161545Z 34005KT 08/08 A2995 RMK A01 T00840079  RH  096%=      5-min Rain = 0
KAMH 161546Z 36004KT 09/08 A2995 RMK A01 T00850079  RH  096%=      5-min Rain = 0
KAMH 161547Z 35003KT 09/08 A2995 RMK A01 T00850079  RH  096%=      5-min Rain = 0
KAMH 161548Z 35004KT 09/08 A2995 RMK A01 T00860080  RH  096%=      5-min Rain = 0
KAMH 161549Z 35005KT 09/08 A2995 RMK A01 T00880084  RH  098%=      5-min Rain = 0
KAMH 161550Z 35004KT 09/08 A2995 RMK A01 T00890082  RH  096%=      5-min Rain = 0
KAMH 161551Z 00005KT 09/08 A2995 RMK A01 T00890083  RH  096%=      5-min Rain = 0
KAMH 161552Z 35005KT 09/08 A2995 RMK A01 T00900083  RH  095%=      5-min Rain = 0
KAMH 161553Z 34005KT 09/08 A2995 RMK A01 T00900081  RH  094%=      5-min Rain = 0
KAMH 161554Z 34005KT 09/09 A2995 RMK A01 T00910085  RH  096%=      5-min Rain = 0
KAMH 161555Z 33005KT 09/08 A2995 RMK A01 T00920082  RH  093%=      5-min Rain = 0
KAMH 161556Z 33006KT 09/09 A2995 RMK A01 T00930085  RH  095%=      5-min Rain = 0
KAMH 161557Z 33005KT 10/09 A2995 RMK A01 T00950088  RH  095%=      5-min Rain = 0
KAMH 161558Z 32006KT 10/09 A2995 RMK A01 T00960087  RH  094%=      5-min Rain = 0
KAMH 161559Z 35003KT 10/09 A2995 RMK A01 T00960087  RH  094%=      5-min Rain = 0
KAMH 161600Z 01004KT 10/09 A2995 RMK A01 T00980089  RH  094%=      5-min Rain = 0
KAMH 161601Z 36003KT 10/09 A2995 RMK A01 T00980086  RH  093%=      5-min Rain = 0
KAMH 161602Z 33005KT 10/09 A2995 RMK A01 T00980090  RH  094%=      5-min Rain = 0
KAMH 161603Z 33004KT 10/09 A2995 RMK A01 T00990091  RH  095%=      5-min Rain = 0
KAMH 161604Z 34006KT 10/09 A2996 RMK A01 T01010093  RH  094%=      5-min Rain = 0
KAMH 161605Z 34005KT 10/09 A2996 RMK A01 T01010087  RH  091%=      5-min Rain = 0
KAMH 161606Z 34008KT 10/09 A2996 RMK A01 T01010090  RH  093%=      5-min Rain = 0
KAMH 161607Z 34009KT 10/09 A2996 RMK A01 T01010089  RH  092%=      5-min Rain = 0
KAMH 161608Z 35009KT 10/09 A2996 RMK A01 T01020091  RH  093%=      5-min Rain = 0
KAMH 161609Z 35007KT 10/09 A2996 RMK A01 T01030090  RH  092%=      5-min Rain = 0
KAMH 161610Z 33009KT 10/09 A2996 RMK A01 T01030091  RH  092%=      5-min Rain = 0
KAMH 161611Z 33010KT 10/09 A2996 RMK A01 T01030088  RH  090%=      5-min Rain = 0
KAMH 161612Z 34012KT 10/09 A2996 RMK A01 T01030087  RH  090%=      5-min Rain = 0
KAMH 161613Z 35011KT 10/09 A2996 RMK A01 T01020088  RH  091%=      5-min Rain = 0
KAMH 161614Z 34012KT 10/09 A2996 RMK A01 T01020090  RH  092%=      5-min Rain = 0
KAMH 161615Z 34012KT 10/09 A2996 RMK A01 T01030088  RH  091%=      5-min Rain = 0
KAMH 161616Z 35011KT 10/09 A2996 RMK A01 T01030087  RH  090%=      5-min Rain = 0
KAMH 161617Z 36014G21KT 10/09 A2996 RMK A01 T01030091  RH  092%=      5-min Rain = 0
KAMH 161618Z 34015G20KT 10/09 A2996 RMK A01 T01030086  RH  089%=      5-min Rain = 0
KAMH 161619Z 34015KT 10/09 A2996 RMK A01 T01030087  RH  090%=      5-min Rain = 0
KAMH 161620Z 34016KT 10/09 A2996 RMK A01 T01030085  RH  089%=      5-min Rain = 0
KAMH 161621Z 34018KT 10/08 A2996 RMK A01 T01020082  RH  087%=      5-min Rain = 0
KAMH 161622Z 35014G20KT 10/08 A2996 RMK A01 T01020083  RH  088%=      5-min Rain = 0
KAMH 161623Z 35017KT 10/08 A2996 RMK A01 T01020083  RH  088%=      5-min Rain = 0
KAMH 161624Z 34014KT 10/08 A2996 RMK A01 T01010082  RH  088%=      5-min Rain = 0
KAMH 161625Z 35014KT 10/08 A2996 RMK A01 T01010084  RH  089%=      5-min Rain = 0
KAMH 161626Z 00014KT 10/09 A2996 RMK A01 T01020086  RH  090%=      5-min Rain = 0
KAMH 161627Z 00014G19KT 10/08 A2996 RMK A01 T01020083  RH  088%=      5-min Rain = 0
KAMH 161628Z 00015KT 10/08 A2996 RMK A01 T01020081  RH  087%=      5-min Rain = 0
KAMH 161629Z 36014KT 10/08 A2996 RMK A01 T01010082  RH  088%=      5-min Rain = 0
KAMH 161630Z 35016KT 10/08 A2996 RMK A01 T01010083  RH  089%=      5-min Rain = 0
KAMH 161631Z 35019KT 10/08 A2996 RMK A01 T01010081  RH  087%=      5-min Rain = 0
KAMH 161632Z 36017KT 10/08 A2996 RMK A01 T01010081  RH  088%=      5-min Rain = 0
KAMH 161633Z 35014G19KT 10/08 A2996 RMK A01 T01010082  RH  089%=      5-min Rain = 0
KAMH 161634Z 35013G18KT 10/08 A2996 RMK A01 T01010084  RH  089%=      5-min Rain = 0
KAMH 161635Z 36013KT 10/09 A2996 RMK A01 T01020087  RH  091%=      5-min Rain = 0
KAMH 161636Z 35013KT 10/09 A2996 RMK A01 T01020086  RH  089%=      5-min Rain = 0
KAMH 161637Z 36012KT 10/09 A2996 RMK A01 T01020086  RH  090%=      5-min Rain = 0
KAMH 161638Z 01015G20KT 10/09 A2996 RMK A01 T01020085  RH  089%=      5-min Rain = 0
KAMH 161639Z 36015KT 10/08 A2996 RMK A01 T01010081  RH  087%=      5-min Rain = 0
KAMH 161640Z 36016KT 10/08 A2996 RMK A01 T01010081  RH  088%=      5-min Rain = 0
KAMH 161641Z 36015KT 10/08 A2997 RMK A01 T01010082  RH  088%=      5-min Rain = 0
KAMH 161642Z 00014KT 10/08 A2997 RMK A01 T01010082  RH  088%=      5-min Rain = 0
KAMH 161643Z 00014KT 10/08 A2997 RMK A01 T01010080  RH  087%=      5-min Rain = 0
KAMH 161644Z 00013KT 10/08 A2997 RMK A01 T01010082  RH  088%=      5-min Rain = 0
KAMH 161645Z 36014KT 10/08 A2997 RMK A01 T01010083  RH  089%=      5-min Rain = 0
KAMH 161646Z 00014G19KT 10/09 A2997 RMK A01 T01010085  RH  090%=      5-min Rain = 0
KAMH 161647Z 00013KT 10/09 A2997 RMK A01 T01020085  RH  089%=      5-min Rain = 0
KAMH 161648Z 36015G23KT 10/09 A2997 RMK A01 T01020086  RH  090%=      5-min Rain = 0
KAMH 161649Z 36018G23KT 10/08 A2997 RMK A01 T01020083  RH  088%=      5-min Rain = 0
KAMH 161650Z 36019G24KT 10/08 A2997 RMK A01 T01010084  RH  089%=      5-min Rain = 0
KAMH 161651Z 00018G24KT 10/08 A2997 RMK A01 T01000084  RH  090%=      5-min Rain = 0
KAMH 161652Z 00019G25KT 10/08 A2997 RMK A01 T01000080  RH  088%=      5-min Rain = 0
KAMH 161653Z 00018G24KT 10/08 A2997 RMK A01 T00980080  RH  088%=      5-min Rain = 0
KAMH 161654Z 36016G23KT 10/08 A2997 RMK A01 T00980082  RH  090%=      5-min Rain = 0
KAMH 161655Z 01017G26KT 10/08 A2997 RMK A01 T00990084  RH  090%=      5-min Rain = 0
KAMH 161656Z 36023KT 10/08 A2997 RMK A01 T00990082  RH  089%=      5-min Rain = 0
KAMH 161657Z 00019G27KT 10/08 A2997 RMK A01 T00970081  RH  089%=      5-min Rain = 0
KAMH 161658Z 00021G26KT 10/08 A2997 RMK A01 T00950077  RH  088%=      5-min Rain = 0
KAMH 161659Z 00021G28KT 09/08 A2998 RMK A01 T00940077  RH  089%=      5-min Rain = 0
KAMH 161700Z 00018G23KT 09/08 A2998 RMK A01 T00940079  RH  090%=      5-min Rain = 0
KAMH 161701Z 00020G26KT 09/08 A2998 RMK A01 T00940077  RH  089%=      5-min Rain = 0
KAMH 161702Z 00019G25KT 09/08 A2998 RMK A01 T00940077  RH  089%=      5-min Rain = 0
KAMH 161703Z 36020G25KT 10/08 A2998 RMK A01 T00950075  RH  088%=      5-min Rain = 0
KAMH 161704Z 36019KT 10/08 A2998 RMK A01 T00960076  RH  087%=      5-min Rain = 0
KAMH 161705Z 36017KT 10/08 A2998 RMK A01 T00960077  RH  088%=      5-min Rain = 0
KAMH 161706Z 00018G24KT 10/08 A2998 RMK A01 T00960075  RH  086%=      5-min Rain = 0
KAMH 161707Z 01013G19KT 10/08 A2998 RMK A01 T00960076  RH  087%=      5-min Rain = 0
KAMH 161708Z 01015KT 10/08 A2998 RMK A01 T00970079  RH  089%=      5-min Rain = 0
KAMH 161709Z 00012G19KT 10/08 A2998 RMK A01 T00990081  RH  089%=      5-min Rain = 0
KAMH 161710Z 00017KT 10/08 A2998 RMK A01 T01000078  RH  086%=      5-min Rain = 0
KAMH 161711Z 36016G21KT 10/07 A2998 RMK A01 T00990074  RH  084%=      5-min Rain = 0
KAMH 161712Z 00015KT 10/08 A2998 RMK A01 T01000079  RH  087%=      5-min Rain = 0
KAMH 161713Z 00016KT 10/08 A2998 RMK A01 T01030081  RH  086%=      5-min Rain = 0
KAMH 161714Z 00015G20KT 10/08 A2998 RMK A01 T01030076  RH  083%=      5-min Rain = 0
KAMH 161715Z 00017KT 10/08 A2998 RMK A01 T01030076  RH  084%=      5-min Rain = 0
KAMH 161716Z 00020KT 10/08 A2998 RMK A01 T01030075  RH  083%=      5-min Rain = 0
KAMH 161717Z 00015G20KT 10/08 A2998 RMK A01 T01030077  RH  084%=      5-min Rain = 0
KAMH 161718Z 01016G21KT 11/08 A2998 RMK A01 T01050077  RH  083%=      5-min Rain = 0
KAMH 161719Z 00015G22KT 11/08 A2997 RMK A01 T01060076  RH  082%=      5-min Rain = 0
KAMH 161720Z 01017KT 11/08 A2997 RMK A01 T01060079  RH  083%=      5-min Rain = 0
KAMH 161721Z 00019KT 11/08 A2997 RMK A01 T01080076  RH  081%=      5-min Rain = 0
KAMH 161722Z 00017G23KT 11/08 A2997 RMK A01 T01070076  RH  081%=      5-min Rain = 0
KAMH 161723Z 00017G25KT 11/08 A2997 RMK A01 T01070080  RH  083%=      5-min Rain = 0
KAMH 161724Z 00020KT 11/07 A2997 RMK A01 T01080074  RH  079%=      5-min Rain = 0
KAMH 161725Z 36016G21KT 11/08 A2997 RMK A01 T01080075  RH  080%=      5-min Rain = 0
KAMH 161726Z 35016G21KT 11/08 A2997 RMK A01 T01110081  RH  082%=      5-min Rain = 0
KAMH 161727Z 01017KT 11/08 A2997 RMK A01 T01130078  RH  079%=      5-min Rain = 0
KAMH 161728Z 36016G23KT 11/07 A2997 RMK A01 T01130072  RH  076%=      5-min Rain = 0
KAMH 161729Z 36018G23KT 11/08 A2997 RMK A01 T01120078  RH  080%=      5-min Rain = 0
KAMH 161730Z 35022G27KT 11/08 A2997 RMK A01 T01120077  RH  079%=      5-min Rain = 0
KAMH 161731Z 35022KT 11/08 A2997 RMK A01 T01090076  RH  080%=      5-min Rain = 0
KAMH 161732Z 35020G25KT 11/08 A2997 RMK A01 T01070076  RH  081%=      5-min Rain = 0
KAMH 161733Z 35020KT 11/07 A2997 RMK A01 T01070073  RH  080%=      5-min Rain = 0
KAMH 161734Z 35019KT 11/07 A2997 RMK A01 T01060074  RH  081%=      5-min Rain = 0
KAMH 161735Z 36019KT 11/07 A2997 RMK A01 T01060073  RH  080%=      5-min Rain = 0
KAMH 161736Z 36015G22KT 11/08 A2997 RMK A01 T01070078  RH  082%=      5-min Rain = 0
KAMH 161737Z 36019KT 11/08 A2997 RMK A01 T01130081  RH  081%=      5-min Rain = 0
KAMH 161738Z 36016G22KT 11/07 A2997 RMK A01 T01140073  RH  076%=      5-min Rain = 0
KAMH 161739Z 00020KT 11/08 A2997 RMK A01 T01130076  RH  078%=      5-min Rain = 0
KAMH 161740Z 00021G27KT 11/07 A2997 RMK A01 T01100071  RH  077%=      5-min Rain = 0
KAMH 161741Z 01019G24KT 11/07 A2997 RMK A01 T01090071  RH  078%=      5-min Rain = 0
KAMH 161742Z 36018G23KT 11/07 A2997 RMK A01 T01100074  RH  078%=      5-min Rain = 0
KAMH 161743Z 35019G25KT 11/08 A2997 RMK A01 T01130080  RH  080%=      5-min Rain = 0
KAMH 161744Z 35021KT 11/08 A2998 RMK A01 T01130075  RH  077%=      5-min Rain = 0
KAMH 161745Z 35020G26KT 11/07 A2998 RMK A01 T01110071  RH  076%=      5-min Rain = 0
KAMH 161746Z 35019G25KT 11/07 A2998 RMK A01 T01090072  RH  078%=      5-min Rain = 0
KAMH 161747Z 00018G24KT 11/07 A2998 RMK A01 T01090069  RH  076%=      5-min Rain = 0
KAMH 161748Z 35016G22KT 11/07 A2998 RMK A01 T01080067  RH  076%=      5-min Rain = 0
KAMH 161749Z 35018KT 11/07 A2998 RMK A01 T01100072  RH  077%=      5-min Rain = 0
KAMH 161750Z 35018G23KT 11/07 A2998 RMK A01 T01110070  RH  076%=      5-min Rain = 0
KAMH 161751Z 36018KT 11/07 A2998 RMK A01 T01130073  RH  077%=      5-min Rain = 0
KAMH 161752Z 00018KT 11/07 A2998 RMK A01 T01120069  RH  075%=      5-min Rain = 0
KAMH 161753Z 35019G24KT 11/08 A2998 RMK A01 T01130077  RH  078%=      5-min Rain = 0
KAMH 161754Z 35015G21KT 11/07 A2998 RMK A01 T01140073  RH  076%=      5-min Rain = 0
KAMH 161755Z 00018KT 11/07 A2998 RMK A01 T01140071  RH  075%=      5-min Rain = 0
KAMH 161756Z 00015G20KT 11/07 A2998 RMK A01 T01120073  RH  077%=      5-min Rain = 0
KAMH 161757Z 00018G24KT 11/07 A2998 RMK A01 T01110072  RH  077%=      5-min Rain = 0
KAMH 161758Z 01020KT 11/06 A2998 RMK A01 T01090064  RH  074%=      5-min Rain = 0
KAMH 161759Z 00016G23KT 11/07 A2998 RMK A01 T01070065  RH  075%=      5-min Rain = 0
KAMH 161800Z 00015G21KT 11/07 A2998 RMK A01 T01070070  RH  078%=      5-min Rain = 0
KAMH 161801Z 00016G21KT 11/07 A2998 RMK A01 T01070067  RH  076%=      5-min Rain = 0
KAMH 161802Z 00017G23KT 11/07 A2998 RMK A01 T01080067  RH  076%=      5-min Rain = 0
KAMH 161803Z 00017G22KT 11/06 A2998 RMK A01 T01090063  RH  073%=      5-min Rain = 0
KAMH 161804Z 36018KT 11/06 A2998 RMK A01 T01070060  RH  073%=      5-min Rain = 0
KAMH 161805Z 34020KT 11/06 A2998 RMK A01 T01060062  RH  074%=      5-min Rain = 0
KAMH 161806Z 35016KT 11/07 A2998 RMK A01 T01070065  RH  076%=      5-min Rain = 0
KAMH 161807Z 00017G23KT 11/07 A2998 RMK A01 T01090068  RH  076%=      5-min Rain = 0
KAMH 161808Z 00016G21KT 11/06 A2998 RMK A01 T01090062  RH  073%=      5-min Rain = 0
KAMH 161809Z 35019KT 11/07 A2998 RMK A01 T01080065  RH  075%=      5-min Rain = 0
KAMH 161810Z 35016KT 11/06 A2998 RMK A01 T01100064  RH  074%=      5-min Rain = 0
KAMH 161811Z 35016KT 11/07 A2998 RMK A01 T01100065  RH  074%=      5-min Rain = 0
KAMH 161812Z 36013KT 11/07 A2998 RMK A01 T01120067  RH  074%=      5-min Rain = 0
KAMH 161813Z 35017KT 12/07 A2998 RMK A01 T01160072  RH  074%=      5-min Rain = 0
KAMH 161814Z 35016KT 12/06 A2998 RMK A01 T01160060  RH  068%=      5-min Rain = 0
KAMH 161815Z 00015KT 11/06 A2998 RMK A01 T01130063  RH  071%=      5-min Rain = 0
KAMH 161816Z 00015G21KT 11/07 A2998 RMK A01 T01140066  RH  072%=      5-min Rain = 0
KAMH 161817Z 00017G22KT 12/07 A2998 RMK A01 T01160067  RH  072%=      5-min Rain = 0
KAMH 161818Z 00017G23KT 12/06 A2998 RMK A01 T01160061  RH  069%=      5-min Rain = 0
KAMH 161819Z 35019G24KT 12/06 A2998 RMK A01 T01150062  RH  070%=      5-min Rain = 0
KAMH 161820Z 35021KT 11/06 A2998 RMK A01 T01140061  RH  070%=      5-min Rain = 0
KAMH 161821Z 36019KT 11/06 A2998 RMK A01 T01140058  RH  068%=      5-min Rain = 0
KAMH 161822Z 35017KT 11/06 A2998 RMK A01 T01130056  RH  068%=      5-min Rain = 0
KAMH 161823Z 36019KT 11/06 A2998 RMK A01 T01120057  RH  069%=      5-min Rain = 0
KAMH 161824Z 36018KT 11/05 A2998 RMK A01 T01110054  RH  068%=      5-min Rain = 0
KAMH 161825Z 35016G23KT 11/06 A2998 RMK A01 T01110060  RH  071%=      5-min Rain = 0
KAMH 161826Z 35019G25KT 12/06 A2998 RMK A01 T01150059  RH  069%=      5-min Rain = 0
KAMH 161827Z 35018KT 12/06 A2998 RMK A01 T01160058  RH  068%=      5-min Rain = 0
KAMH 161828Z 00016KT 12/06 A2998 RMK A01 T01170056  RH  066%=      5-min Rain = 0
KAMH 161829Z 35017G23KT 12/06 A2998 RMK A01 T01170056  RH  066%=      5-min Rain = 0
KAMH 161830Z 00020KT 12/06 A2998 RMK A01 T01180058  RH  067%=      5-min Rain = 0
KAMH 161831Z 00019G25KT 12/06 A2998 RMK A01 T01190056  RH  065%=      5-min Rain = 0
KAMH 161832Z 01015KT 12/06 A2998 RMK A01 T01180055  RH  065%=      5-min Rain = 0
KAMH 161833Z 35017G24KT 12/06 A2998 RMK A01 T01170058  RH  067%=      5-min Rain = 0
KAMH 161834Z 35020G25KT 12/05 A2998 RMK A01 T01170053  RH  065%=      5-min Rain = 0
KAMH 161835Z 36021KT 12/05 A2998 RMK A01 T01160053  RH  065%=      5-min Rain = 0
KAMH 161836Z 35016G21KT 12/05 A2998 RMK A01 T01160054  RH  065%=      5-min Rain = 0
KAMH 161837Z 35016KT 12/06 A2998 RMK A01 T01180056  RH  066%=      5-min Rain = 0
KAMH 161838Z 00015G21KT 12/06 A2998 RMK A01 T01210058  RH  065%=      5-min Rain = 0
KAMH 161839Z 36020G25KT 12/05 A2998 RMK A01 T01210054  RH  063%=      5-min Rain = 0
KAMH 161840Z 36018G23KT 12/05 A2998 RMK A01 T01200052  RH  063%=      5-min Rain = 0
KAMH 161841Z 35016G22KT 12/05 A2998 RMK A01 T01190053  RH  064%=      5-min Rain = 0
KAMH 161842Z 34021KT 12/05 A2998 RMK A01 T01200054  RH  064%=      5-min Rain = 0
KAMH 161843Z 36016G21KT 12/05 A2998 RMK A01 T01220054  RH  063%=      5-min Rain = 0
KAMH 161844Z 00016G21KT 12/06 A2998 RMK A01 T01230056  RH  064%=      5-min Rain = 0
KAMH 161845Z 00016G21KT 13/06 A2998 RMK A01 T01270060  RH  064%=      5-min Rain = 0
KAMH 161846Z 36014G19KT 13/06 A2998 RMK A01 T01290058  RH  062%=      5-min Rain = 0
KAMH 161847Z 00016G22KT 13/06 A2998 RMK A01 T01300056  RH  061%=      5-min Rain = 0
KAMH 161848Z 36017KT 13/05 A2998 RMK A01 T01300053  RH  060%=      5-min Rain = 0
KAMH 161849Z 01016G21KT 13/05 A2997 RMK A01 T01280048  RH  058%=      5-min Rain = 0
KAMH 161850Z 35020G26KT 13/05 A2997 RMK A01 T01270053  RH  061%=      5-min Rain = 0
KAMH 161851Z 35017G23KT 13/05 A2998 RMK A01 T01290051  RH  059%=      5-min Rain = 0
KAMH 161852Z 01021G28KT 13/05 A2997 RMK A01 T01300053  RH  059%=      5-min Rain = 0
KAMH 161853Z 36020G25KT 13/05 A2998 RMK A01 T01290049  RH  058%=      5-min Rain = 0
KAMH 161854Z 01017G24KT 13/05 A2997 RMK A01 T01280048  RH  058%=      5-min Rain = 0
KAMH 161855Z 01018KT 13/04 A2997 RMK A01 T01260042  RH  057%=      5-min Rain = 0
KAMH 161856Z 00019G25KT 13/04 A2997 RMK A01 T01250044  RH  058%=      5-min Rain = 0
KAMH 161857Z 36016G23KT 13/05 A2997 RMK A01 T01260048  RH  059%=      5-min Rain = 0
KAMH 161858Z 35019KT 13/05 A2997 RMK A01 T01300050  RH  058%=      5-min Rain = 0
KAMH 161859Z 35018KT 13/04 A2997 RMK A01 T01300044  RH  056%=      5-min Rain = 0
KAMH 161900Z 35015KT 13/04 A2997 RMK A01 T01270042  RH  056%=      5-min Rain = 0
KAMH 161901Z 00018G25KT 13/04 A2997 RMK A01 T01270044  RH  057%=      5-min Rain = 0
KAMH 161902Z 36019KT 13/04 A2997 RMK A01 T01280044  RH  057%=      5-min Rain = 0
KAMH 161903Z 36020KT 13/05 A2997 RMK A01 T01300049  RH  058%=      5-min Rain = 0
KAMH 161904Z 36018G24KT 13/05 A2997 RMK A01 T01310047  RH  057%=      5-min Rain = 0
KAMH 161905Z 36020G25KT 13/05 A2997 RMK A01 T01320045  RH  055%=      5-min Rain = 0
KAMH 161906Z 35018G23KT 13/05 A2998 RMK A01 T01320045  RH  055%=      5-min Rain = 0
KAMH 161907Z 36015KT 13/04 A2997 RMK A01 T01300040  RH  054%=      5-min Rain = 0
KAMH 161908Z 36012G18KT 13/05 A2997 RMK A01 T01290047  RH  057%=      5-min Rain = 0
KAMH 161909Z 00015G22KT 14/05 A2997 RMK A01 T01350053  RH  058%=      5-min Rain = 0
KAMH 161910Z 36020G25KT 14/05 A2998 RMK A01 T01380049  RH  055%=      5-min Rain = 0
KAMH 161911Z 35020G26KT 14/04 A2998 RMK A01 T01350043  RH  054%=      5-min Rain = 0
KAMH 161912Z 35018G23KT 13/04 A2998 RMK A01 T01320039  RH  053%=      5-min Rain = 0
KAMH 161913Z 01018G24KT 13/04 A2998 RMK A01 T01290040  RH  055%=      5-min Rain = 0
KAMH 161914Z 01020G27KT 13/05 A2998 RMK A01 T01300046  RH  057%=      5-min Rain = 0
KAMH 161915Z 01018G24KT 13/04 A2998 RMK A01 T01300041  RH  055%=      5-min Rain = 0
KAMH 161916Z 01017G24KT 13/04 A2998 RMK A01 T01280042  RH  056%=      5-min Rain = 0
KAMH 161917Z 36021G26KT 13/04 A2998 RMK A01 T01290043  RH  056%=      5-min Rain = 0
KAMH 161918Z 35015KT 13/04 A2998 RMK A01 T01270040  RH  055%=      5-min Rain = 0
KAMH 161919Z 36014G20KT 13/05 A2998 RMK A01 T01280047  RH  058%=      5-min Rain = 0
KAMH 161920Z 36017G27KT 13/05 A2998 RMK A01 T01320048  RH  057%=      5-min Rain = 0
KAMH 161921Z 01018G23KT 14/05 A2998 RMK A01 T01350047  RH  055%=      5-min Rain = 0
KAMH 161922Z 00018G23KT 14/04 A2998 RMK A01 T01350044  RH  054%=      5-min Rain = 0
KAMH 161923Z 35018G23KT 14/05 A2998 RMK A01 T01350045  RH  055%=      5-min Rain = 0
KAMH 161924Z 34020KT 14/04 A2998 RMK A01 T01360041  RH  052%=      5-min Rain = 0
KAMH 161925Z 35018G23KT 13/04 A2998 RMK A01 T01340039  RH  052%=      5-min Rain = 0
KAMH 161926Z 35016KT 13/04 A2998 RMK A01 T01330038  RH  052%=      5-min Rain = 0
KAMH 161927Z 36017G27KT 13/04 A2998 RMK A01 T01330038  RH  053%=      5-min Rain = 0
KAMH 161928Z 35019KT 13/04 A2998 RMK A01 T01340038  RH  052%=      5-min Rain = 0
KAMH 161929Z 36018G23KT 14/04 A2998 RMK A01 T01360039  RH  052%=      5-min Rain = 0
KAMH 161930Z 35017KT 14/04 A2998 RMK A01 T01370038  RH  051%=      5-min Rain = 0
KAMH 161931Z 35015KT 14/04 A2997 RMK A01 T01380037  RH  050%=      5-min Rain = 0
KAMH 161932Z 01018G23KT 14/04 A2997 RMK A01 T01370043  RH  053%=      5-min Rain = 0
KAMH 161933Z 02018G24KT 14/04 A2997 RMK A01 T01370042  RH  052%=      5-min Rain = 0
KAMH 161934Z 00020KT 14/04 A2997 RMK A01 T01380044  RH  053%=      5-min Rain = 0
KAMH 161935Z 00018G28KT 14/05 A2997 RMK A01 T01390045  RH  053%=      5-min Rain = 0
KAMH 161936Z 00019G24KT 14/04 A2998 RMK A01 T01390040  RH  051%=      5-min Rain = 0
KAMH 161937Z 00017KT 13/04 A2998 RMK A01 T01340038  RH  052%=      5-min Rain = 0
KAMH 161938Z 35017G23KT 13/04 A2998 RMK A01 T01330039  RH  053%=      5-min Rain = 0
KAMH 161939Z 35022G27KT 13/04 A2998 RMK A01 T01320037  RH  052%=      5-min Rain = 0
KAMH 161940Z 35018G25KT 13/03 A2998 RMK A01 T01320034  RH  051%=      5-min Rain = 0
KAMH 161941Z 00019G26KT 13/03 A2998 RMK A01 T01320033  RH  051%=      5-min Rain = 0
KAMH 161942Z 01017G24KT 13/03 A2998 RMK A01 T01330034  RH  051%=      5-min Rain = 0
KAMH 161943Z 00014KT 13/03 A2998 RMK A01 T01330033  RH  051%=      5-min Rain = 0
KAMH 161944Z 01010KT 13/04 A2997 RMK A01 T01330037  RH  052%=      5-min Rain = 0
KAMH 161945Z 36018G27KT 14/04 A2997 RMK A01 T01390043  RH  052%=      5-min Rain = 0
KAMH 161946Z 36021G26KT 14/03 A2997 RMK A01 T01380034  RH  049%=      5-min Rain = 0
KAMH 161947Z 35018KT 14/04 A2998 RMK A01 T01360035  RH  050%=      5-min Rain = 0
KAMH 161948Z 00015G22KT 14/03 A2998 RMK A01 T01350032  RH  050%=      5-min Rain = 0
KAMH 161949Z 01015G20KT 14/04 A2998 RMK A01 T01350036  RH  051%=      5-min Rain = 0
KAMH 161950Z 01016G23KT 14/04 A2997 RMK A01 T01350037  RH  051%=      5-min Rain = 0
KAMH 161951Z 01016G23KT 13/04 A2997 RMK A01 T01340036  RH  051%=      5-min Rain = 0
KAMH 161952Z 36019G25KT 13/04 A2998 RMK A01 T01340038  RH  052%=      5-min Rain = 0
KAMH 161953Z 00014G23KT 14/04 A2998 RMK A01 T01370041  RH  052%=      5-min Rain = 0
KAMH 161954Z 02018G23KT 14/04 A2997 RMK A01 T01410042  RH  051%=      5-min Rain = 0
KAMH 161955Z 01022KT 14/04 A2997 RMK A01 T01410036  RH  049%=      5-min Rain = 0
KAMH 161956Z 01019G25KT 14/04 A2998 RMK A01 T01380038  RH  051%=      5-min Rain = 0
KAMH 161957Z 01018G25KT 14/04 A2997 RMK A01 T01380035  RH  050%=      5-min Rain = 0
KAMH 161958Z 02016G23KT 14/04 A2997 RMK A01 T01370037  RH  051%=      5-min Rain = 0
KAMH 161959Z 01018G26KT 14/04 A2998 RMK A01 T01410037  RH  049%=      5-min Rain = 0
KAMH 162000Z 35020KT 14/03 A2998 RMK A01 T01400032  RH  048%=      5-min Rain = 0
KAMH 162001Z 35021KT 14/03 A2998 RMK A01 T01370034  RH  050%=      5-min Rain = 0
KAMH 162002Z 35019KT 14/03 A2998 RMK A01 T01370032  RH  049%=      5-min Rain = 0
KAMH 162003Z 34019KT 14/03 A2998 RMK A01 T01390034  RH  049%=      5-min Rain = 0
KAMH 162004Z 34016KT 14/03 A2998 RMK A01 T01400031  RH  048%=      5-min Rain = 0
KAMH 162005Z 36017G22KT 14/03 A2998 RMK A01 T01390032  RH  049%=      5-min Rain = 0
KAMH 162006Z 36019G25KT 14/04 A2998 RMK A01 T01380036  RH  050%=      5-min Rain = 0
KAMH 162007Z 00018G25KT 14/04 A2998 RMK A01 T01390037  RH  050%=      5-min Rain = 0
KAMH 162008Z 35021G26KT 14/04 A2998 RMK A01 T01400037  RH  050%=      5-min Rain = 0
KAMH 162009Z 35020G26KT 14/03 A2998 RMK A01 T01380033  RH  049%=      5-min Rain = 0
KAMH 162010Z 35020KT 14/03 A2998 RMK A01 T01360033  RH  050%=      5-min Rain = 0
KAMH 162011Z 35020KT 13/03 A2998 RMK A01 T01330029  RH  049%=      5-min Rain = 0
KAMH 162012Z 01017KT 13/03 A2998 RMK A01 T01320032  RH  051%=      5-min Rain = 0
KAMH 162013Z 01014G19KT 13/03 A2998 RMK A01 T01310030  RH  050%=      5-min Rain = 0
KAMH 162014Z 01017KT 13/04 A2998 RMK A01 T01310036  RH  052%=      5-min Rain = 0
KAMH 162015Z 01019G28KT 13/04 A2998 RMK A01 T01340036  RH  051%=      5-min Rain = 0
KAMH 162016Z 01021G26KT 14/03 A2998 RMK A01 T01350034  RH  050%=      5-min Rain = 0
KAMH 162017Z 01018G25KT 13/03 A2998 RMK A01 T01320028  RH  049%=      5-min Rain = 0
KAMH 162018Z 36020KT 13/03 A2998 RMK A01 T01290030  RH  051%=      5-min Rain = 0
KAMH 162019Z 01020G27KT 13/03 A2998 RMK A01 T01280029  RH  051%=      5-min Rain = 0
KAMH 162020Z 01019G24KT 13/03 A2998 RMK A01 T01280028  RH  050%=      5-min Rain = 0
KAMH 162021Z 01016G23KT 13/03 A2998 RMK A01 T01290029  RH  051%=      5-min Rain = 0
KAMH 162022Z 01018KT 13/03 A2998 RMK A01 T01320029  RH  049%=      5-min Rain = 0
KAMH 162023Z 36017KT 13/03 A2998 RMK A01 T01300027  RH  049%=      5-min Rain = 0
KAMH 162024Z 35019G26KT 13/03 A2998 RMK A01 T01310033  RH  051%=      5-min Rain = 0
KAMH 162025Z 35020G30KT 14/03 A2998 RMK A01 T01350034  RH  050%=      5-min Rain = 0
KAMH 162026Z 36023G30KT 14/03 A2998 RMK A01 T01380034  RH  049%=      5-min Rain = 0
KAMH 162027Z 36021KT 14/03 A2998 RMK A01 T01370031  RH  049%=      5-min Rain = 0
KAMH 162028Z 35020G29KT 14/03 A2998 RMK A01 T01350031  RH  049%=      5-min Rain = 0
KAMH 162029Z 35021G26KT 14/03 A2998 RMK A01 T01360030  RH  049%=      5-min Rain = 0
KAMH 162030Z 35020KT 14/03 A2998 RMK A01 T01380033  RH  049%=      5-min Rain = 0
KAMH 162031Z 00018G23KT 14/03 A2998 RMK A01 T01400029  RH  047%=      5-min Rain = 0
KAMH 162032Z 01015G20KT 14/03 A2998 RMK A01 T01380028  RH  047%=      5-min Rain = 0
KAMH 162033Z 35019G25KT 14/03 A2998 RMK A01 T01360029  RH  048%=      5-min Rain = 0
KAMH 162034Z 34019KT 14/02 A2998 RMK A01 T01370024  RH  046%=      5-min Rain = 0
KAMH 162035Z 34018KT 14/02 A2998 RMK A01 T01350024  RH  047%=      5-min Rain = 0
KAMH 162036Z 34019G24KT 14/03 A2998 RMK A01 T01360025  RH  047%=      5-min Rain = 0
KAMH 162037Z 34013KT 14/02 A2998 RMK A01 T01370023  RH  046%=      5-min Rain = 0
KAMH 162038Z 00016G24KT 14/03 A2998 RMK A01 T01390025  RH  046%=      5-min Rain = 0
KAMH 162039Z 36020G25KT 14/03 A2998 RMK A01 T01390029  RH  047%=      5-min Rain = 0
KAMH 162040Z 36018G25KT 14/03 A2998 RMK A01 T01400028  RH  047%=      5-min Rain = 0
KAMH 162041Z 36021G26KT 14/03 A2998 RMK A01 T01400028  RH  047%=      5-min Rain = 0
KAMH 162042Z 35018KT 14/03 A2998 RMK A01 T01400025  RH  046%=      5-min Rain = 0
KAMH 162043Z 36018G23KT 14/03 A2998 RMK A01 T01410027  RH  046%=      5-min Rain = 0
KAMH 162044Z 00018G23KT 14/02 A2998 RMK A01 T01420022  RH  044%=      5-min Rain = 0
KAMH 162045Z 36019G24KT 14/02 A2998 RMK A01 T01380020  RH  045%=      5-min Rain = 0
KAMH 162046Z 01014KT 14/02 A2998 RMK A01 T01350021  RH  046%=      5-min Rain = 0
KAMH 162047Z 01019G24KT 14/03 A2998 RMK A01 T01380028  RH  047%=      5-min Rain = 0
KAMH 162048Z 36017G22KT 14/02 A2998 RMK A01 T01410024  RH  045%=      5-min Rain = 0
KAMH 162049Z 35020KT 14/02 A2998 RMK A01 T01420023  RH  045%=      5-min Rain = 0
KAMH 162050Z 34020KT 14/02 A2998 RMK A01 T01410019  RH  044%=      5-min Rain = 0
KAMH 162051Z 34020G28KT 14/02 A2998 RMK A01 T01410019  RH  043%=      5-min Rain = 0
KAMH 162052Z 34018G26KT 14/02 A2998 RMK A01 T01410021  RH  044%=      5-min Rain = 0
KAMH 162053Z 35023G29KT 14/02 A2998 RMK A01 T01430024  RH  044%=      5-min Rain = 0
KAMH 162054Z 35022G28KT 14/02 A2998 RMK A01 T01420023  RH  045%=      5-min Rain = 0
KAMH 162055Z 34019G24KT 14/02 A2998 RMK A01 T01420024  RH  045%=      5-min Rain = 0
KAMH 162056Z 35020G25KT 14/02 A2998 RMK A01 T01430020  RH  043%=      5-min Rain = 0
KAMH 162057Z 35018KT 14/02 A2998 RMK A01 T01390016  RH  043%=      5-min Rain = 0
KAMH 162058Z 35015KT 14/02 A2998 RMK A01 T01380017  RH  044%=      5-min Rain = 0
KAMH 162059Z 35018KT 14/02 A2998 RMK A01 T01380020  RH  045%=      5-min Rain = 0
KAMH 162100Z 36014G19KT 14/02 A2998 RMK A01 T01390020  RH  044%=      5-min Rain = 0
KAMH 162101Z 35013KT 14/02 A2998 RMK A01 T01410020  RH  044%=      5-min Rain = 0
KAMH 162102Z 02015G22KT 14/02 A2998 RMK A01 T01430022  RH  044%=      5-min Rain = 0
KAMH 162103Z 01017G24KT 15/02 A2998 RMK A01 T01450024  RH  044%=      5-min Rain = 0
KAMH 162104Z 01017KT 15/02 A2998 RMK A01 T01450021  RH  043%=      5-min Rain = 0
KAMH 162105Z 02017G22KT 14/02 A2998 RMK A01 T01420020  RH  044%=      5-min Rain = 0
KAMH 162106Z 00018G26KT 14/02 A2998 RMK A01 T01410023  RH  045%=      5-min Rain = 0
KAMH 162107Z 36022KT 14/02 A2998 RMK A01 T01440022  RH  044%=      5-min Rain = 0
KAMH 162108Z 01017G22KT 14/02 A2998 RMK A01 T01420020  RH  043%=      5-min Rain = 0
KAMH 162109Z 00014G20KT 14/02 A2998 RMK A01 T01400018  RH  044%=      5-min Rain = 0
KAMH 162110Z 35021KT 14/02 A2998 RMK A01 T01380020  RH  045%=      5-min Rain = 0
KAMH 162111Z 35016KT 14/02 A2998 RMK A01 T01390019  RH  044%=      5-min Rain = 0
KAMH 162112Z 36017KT 14/02 A2998 RMK A01 T01420021  RH  044%=      5-min Rain = 0
KAMH 162113Z 00016G24KT 14/02 A2998 RMK A01 T01420017  RH  043%=      5-min Rain = 0
KAMH 162114Z 35018G24KT 14/02 A2998 RMK A01 T01400016  RH  043%=      5-min Rain = 0
KAMH 162115Z 35019G24KT 14/02 A2998 RMK A01 T01380015  RH  043%=      5-min Rain = 0
KAMH 162116Z 35017KT 14/01 A2998 RMK A01 T01360012  RH  043%=      5-min Rain = 0
KAMH 162117Z 35018KT 14/02 A2998 RMK A01 T01350015  RH  044%=      5-min Rain = 0
KAMH 162118Z 35015KT 14/01 A2998 RMK A01 T01350010  RH  042%=      5-min Rain = 0
KAMH 162119Z 00015G21KT 13/01 A2998 RMK A01 T01330011  RH  043%=      5-min Rain = 0
KAMH 162120Z 01017G25KT 13/01 A2998 RMK A01 T01340012  RH  043%=      5-min Rain = 0
KAMH 162121Z 02018G23KT 14/01 A2998 RMK A01 T01370014  RH  043%=      5-min Rain = 0
KAMH 162122Z 00014G19KT 14/01 A2998 RMK A01 T01400012  RH  042%=      5-min Rain = 0
KAMH 162123Z 01013KT 14/01 A2998 RMK A01 T01400012  RH  042%=      5-min Rain = 0
KAMH 162124Z 35013G21KT 14/02 A2998 RMK A01 T01410015  RH  042%=      5-min Rain = 0
KAMH 162125Z 00017KT 14/01 A2998 RMK A01 T01430011  RH  041%=      5-min Rain = 0
KAMH 162126Z 01015G20KT 14/01 A2998 RMK A01 T01400012  RH  042%=      5-min Rain = 0
KAMH 162127Z 01018KT 14/01 A2998 RMK A01 T01410013  RH  042%=      5-min Rain = 0
KAMH 162128Z 02016G21KT 14/02 A2998 RMK A01 T01410015  RH  042%=      5-min Rain = 0
KAMH 162129Z 01015G22KT 14/02 A2998 RMK A01 T01430015  RH  042%=      5-min Rain = 0
KAMH 162130Z 01017KT 15/02 A2998 RMK A01 T01450017  RH  042%=      5-min Rain = 0
KAMH 162131Z 01016G24KT 14/01 A2997 RMK A01 T01440014  RH  041%=      5-min Rain = 0
KAMH 162132Z 01020G25KT 14/02 A2998 RMK A01 T01440018  RH  042%=      5-min Rain = 0
KAMH 162133Z 01020G26KT 15/01 A2998 RMK A01 T01450014  RH  041%=      5-min Rain = 0
KAMH 162134Z 02015G21KT 14/01 A2998 RMK A01 T01420013  RH  041%=      5-min Rain = 0
KAMH 162135Z 03016KT 14/01 A2997 RMK A01 T01420014  RH  042%=      5-min Rain = 0
KAMH 162136Z 02020G28KT 14/01 A2997 RMK A01 T01430014  RH  041%=      5-min Rain = 0
KAMH 162137Z 03016G22KT 15/02 A2997 RMK A01 T01450016  RH  042%=      5-min Rain = 0
KAMH 162138Z 01017KT 15/02 A2997 RMK A01 T01460015  RH  041%=      5-min Rain = 0
KAMH 162139Z 36016KT 15/02 A2998 RMK A01 T01460017  RH  042%=      5-min Rain = 0
KAMH 162140Z 02014G19KT 15/02 A2997 RMK A01 T01490019  RH  041%=      5-min Rain = 0
KAMH 162141Z 00019G25KT 15/02 A2998 RMK A01 T01490016  RH  040%=      5-min Rain = 0
KAMH 162142Z 36021G27KT 14/01 A2997 RMK A01 T01440013  RH  041%=      5-min Rain = 0
KAMH 162143Z 01016KT 14/02 A2998 RMK A01 T01410017  RH  043%=      5-min Rain = 0
KAMH 162144Z 01016KT 14/01 A2998 RMK A01 T01420014  RH  042%=      5-min Rain = 0
KAMH 162145Z 01015G21KT 14/01 A2998 RMK A01 T01410014  RH  042%=      5-min Rain = 0
KAMH 162146Z 35019KT 14/02 A2998 RMK A01 T01440018  RH  042%=      5-min Rain = 0
KAMH 162147Z 35019KT 15/01 A2998 RMK A01 T01450012  RH  040%=      5-min Rain = 0
KAMH 162148Z 00020G28KT 14/01 A2998 RMK A01 T01410009  RH  041%=      5-min Rain = 0
KAMH 162149Z 00022G28KT 14/01 A2998 RMK A01 T01380011  RH  042%=      5-min Rain = 0
KAMH 162150Z 00022KT 14/01 A2998 RMK A01 T01380011  RH  042%=      5-min Rain = 0
KAMH 162151Z 01018G23KT 14/01 A2998 RMK A01 T01380009  RH  041%=      5-min Rain = 0
KAMH 162152Z 01016KT 13/01 A2998 RMK A01 T01340006  RH  042%=      5-min Rain = 0
KAMH 162153Z 00013KT 13/01 A2998 RMK A01 T01310008  RH  043%=      5-min Rain = 0
KAMH 162154Z 02014KT 13/01 A2998 RMK A01 T01330012  RH  044%=      5-min Rain = 0
KAMH 162155Z 02019G26KT 14/01 A2998 RMK A01 T01360012  RH  043%=      5-min Rain = 0
KAMH 162156Z 36019G24KT 14/01 A2998 RMK A01 T01400012  RH  042%=      5-min Rain = 0
KAMH 162157Z 35018G26KT 14/01 A2998 RMK A01 T01410010  RH  041%=      5-min Rain = 0
KAMH 162158Z 35019G25KT 14/01 A2998 RMK A01 T01420010  RH  041%=      5-min Rain = 0
KAMH 162159Z 35020G25KT 14/01 A2998 RMK A01 T01410010  RH  041%=      5-min Rain = 0
KAMH 162200Z 35018KT 14/01 A2998 RMK A01 T01400006  RH  040%=      5-min Rain = 0
KAMH 162201Z 01018G24KT 14/01 A2998 RMK A01 T01390007  RH  041%=      5-min Rain = 0
KAMH 162202Z 01018G24KT 14/01 A2998 RMK A01 T01390010  RH  041%=      5-min Rain = 0
KAMH 162203Z 02018KT 14/01 A2998 RMK A01 T01400007  RH  040%=      5-min Rain = 0
KAMH 162204Z 00019G30KT 14/01 A2998 RMK A01 T01400007  RH  040%=      5-min Rain = 0
KAMH 162205Z 36022G28KT 14/01 A2998 RMK A01 T01400006  RH  040%=      5-min Rain = 0
KAMH 162206Z 36019G24KT 14/01 A2998 RMK A01 T01400007  RH  040%=      5-min Rain = 0
KAMH 162207Z 36015G21KT 14/01 A2998 RMK A01 T01410009  RH  040%=      5-min Rain = 0
KAMH 162208Z 01015KT 14/01 A2998 RMK A01 T01440009  RH  040%=      5-min Rain = 0
KAMH 162209Z 02016G21KT 14/01 A2998 RMK A01 T01440006  RH  039%=      5-min Rain = 0
KAMH 162210Z 01020KT 14/00 A2998 RMK A01 T01430004  RH  039%=      5-min Rain = 0
KAMH 162211Z 00019G24KT 14/01 A2998 RMK A01 T01400005  RH  040%=      5-min Rain = 0
KAMH 162212Z 00017KT 14/01 A2998 RMK A01 T01390006  RH  040%=      5-min Rain = 0
KAMH 162213Z 36018G25KT 14/01 A2998 RMK A01 T01400008  RH  040%=      5-min Rain = 0
KAMH 162214Z 36019KT 14/01 A2998 RMK A01 T01410008  RH  040%=      5-min Rain = 0
KAMH 162215Z 00022G28KT 14/01 A2998 RMK A01 T01420008  RH  040%=      5-min Rain = 0
KAMH 162216Z 01019G26KT 14/01 A2998 RMK A01 T01390006  RH  040%=      5-min Rain = 0
KAMH 162217Z 36021G26KT 14/01 A2998 RMK A01 T01380006  RH  040%=      5-min Rain = 0
KAMH 162218Z 00018G25KT 14/01 A2998 RMK A01 T01360005  RH  041%=      5-min Rain = 0
KAMH 162219Z 01019G26KT 14/01 A2998 RMK A01 T01370010  RH  042%=      5-min Rain = 0
KAMH 162220Z 00018G24KT 14/00 A2998 RMK A01 T01370004  RH  040%=      5-min Rain = 0
KAMH 162221Z 01016G21KT 14/00 A2998 RMK A01 T01350004  RH  041%=      5-min Rain = 0
KAMH 162222Z 00015KT 14/00 A2998 RMK A01 T01350004  RH  041%=      5-min Rain = 0
KAMH 162223Z 01018G24KT 14/01 A2998 RMK A01 T01360005  RH  041%=      5-min Rain = 0
KAMH 162224Z 02018KT 14/01 A2998 RMK A01 T01360005  RH  041%=      5-min Rain = 0
KAMH 162225Z 02016KT 14/01 A2999 RMK A01 T01370008  RH  041%=      5-min Rain = 0
KAMH 162226Z 35024KT 14/01 A2999 RMK A01 T01390005  RH  040%=      5-min Rain = 0
KAMH 162227Z 36020KT 14/M00 A2999 RMK A01 T01361001  RH  039%=      5-min Rain = 0
KAMH 162228Z 35021G26KT 13/00 A2999 RMK A01 T01340004  RH  041%=      5-min Rain = 0
KAMH 162229Z 35019G25KT 14/00 A2999 RMK A01 T01370002  RH  039%=      5-min Rain = 0
KAMH 162230Z 36019KT 14/00 A2999 RMK A01 T01370000  RH  039%=      5-min Rain = 0
KAMH 162231Z 36017KT 14/00 A2999 RMK A01 T013600-0  RH  039%=      5-min Rain = 0
KAMH 162232Z 00016G23KT 14/00 A2999 RMK A01 T01360002  RH  040%=      5-min Rain = 0
KAMH 162233Z 01018G23KT 14/00 A2999 RMK A01 T01370004  RH  040%=      5-min Rain = 0
KAMH 162234Z 02019G26KT 14/00 A2999 RMK A01 T01370002  RH  040%=      5-min Rain = 0
KAMH 162235Z 01017G23KT 13/00 A2999 RMK A01 T01340002  RH  040%=      5-min Rain = 0
KAMH 162236Z 02021G26KT 14/01 A2999 RMK A01 T01350005  RH  041%=      5-min Rain = 0
KAMH 162237Z 01019G25KT 14/00 A2999 RMK A01 T01360004  RH  040%=      5-min Rain = 0
KAMH 162238Z 36019G26KT 14/00 A2999 RMK A01 T01370003  RH  040%=      5-min Rain = 0
KAMH 162239Z 01016G22KT 14/00 A2999 RMK A01 T01370003  RH  040%=      5-min Rain = 0
KAMH 162240Z 02017G23KT 14/00 A2999 RMK A01 T01390002  RH  039%=      5-min Rain = 0
KAMH 162241Z 01017KT 14/00 A2999 RMK A01 T01370002  RH  040%=      5-min Rain = 0
KAMH 162242Z 36019G25KT 14/00 A2999 RMK A01 T01350004  RH  041%=      5-min Rain = 0
KAMH 162243Z 00017G25KT 14/01 A2999 RMK A01 T01360005  RH  041%=      5-min Rain = 0
KAMH 162244Z 00021KT 14/00 A2999 RMK A01 T01350003  RH  040%=      5-min Rain = 0
KAMH 162245Z 01018G23KT 13/00 A2999 RMK A01 T01330003  RH  041%=      5-min Rain = 0
KAMH 162246Z 02019KT 13/00 A2999 RMK A01 T01340004  RH  041%=      5-min Rain = 0
KAMH 162247Z 01015KT 13/00 A2999 RMK A01 T01330003  RH  041%=      5-min Rain = 0
KAMH 162248Z 01018G28KT 13/00 A2999 RMK A01 T01320004  RH  042%=      5-min Rain = 0
KAMH 162249Z 01019G25KT 13/00 A30 RMK A01 T01320003  RH  041%=      5-min Rain = 0
KAMH 162250Z 02017G22KT 13/00 A30 RMK A01 T01280000  RH  041%=      5-min Rain = 0
KAMH 162251Z 01020KT 13/00 A30 RMK A01 T01280002  RH  042%=      5-min Rain = 0
KAMH 162252Z 01018G25KT 13/00 A30 RMK A01 T01280001  RH  042%=      5-min Rain = 0
KAMH 162253Z 00019G26KT 13/00 A30 RMK A01 T01280001  RH  042%=      5-min Rain = 0
KAMH 162254Z 01017G24KT 13/M00 A30 RMK A01 T01281002  RH  041%=      5-min Rain = 0
KAMH 162255Z 01019G24KT 13/00 A30 RMK A01 T01260000  RH  042%=      5-min Rain = 0
KAMH 162256Z 01018G23KT 13/00 A30 RMK A01 T012600-0  RH  042%=      5-min Rain = 0
KAMH 162257Z 01019G25KT 13/00 A30 RMK A01 T01250001  RH  043%=      5-min Rain = 0
KAMH 162258Z 02017KT 12/M00 A30 RMK A01 T01241001  RH  042%=      5-min Rain = 0
KAMH 162259Z 02017G22KT 12/00 A30 RMK A01 T01240002  RH  043%=      5-min Rain = 0
KAMH 162300Z 02020G26KT 13/00 A30 RMK A01 T01250004  RH  043%=      5-min Rain = 0
KAMH 162301Z 02019G26KT 13/00 A30 RMK A01 T01250004  RH  043%=      5-min Rain = 0
KAMH 162302Z 03021G27KT 12/00 A30 RMK A01 T01240004  RH  044%=      5-min Rain = 0
KAMH 162303Z 03021G27KT 12/00 A30 RMK A01 T01230002  RH  044%=      5-min Rain = 0
KAMH 162304Z 03016G21KT 12/00 A30 RMK A01 T01210001  RH  044%=      5-min Rain = 0
KAMH 162305Z 03019G26KT 12/00 A30 RMK A01 T01200003  RH  045%=      5-min Rain = 0
KAMH 162306Z 02018G23KT 12/00 A30 RMK A01 T01200004  RH  045%=      5-min Rain = 0
KAMH 162307Z 01017G23KT 12/00 A30 RMK A01 T01210000  RH  043%=      5-min Rain = 0
KAMH 162308Z 02018G23KT 12/00 A3001 RMK A01 T01200000  RH  044%=      5-min Rain = 0
KAMH 162309Z 02019KT 12/00 A3001 RMK A01 T01200002  RH  044%=      5-min Rain = 0
KAMH 162310Z 02018KT 12/00 A3001 RMK A01 T01190001  RH  044%=      5-min Rain = 0
KAMH 162311Z 01019KT 12/00 A3001 RMK A01 T01180002  RH  045%=      5-min Rain = 0
KAMH 162312Z 02019G24KT 12/00 A3001 RMK A01 T01170002  RH  045%=      5-min Rain = 0
KAMH 162313Z 02018KT 12/00 A3001 RMK A01 T01170003  RH  045%=      5-min Rain = 0
KAMH 162314Z 02015KT 12/00 A3001 RMK A01 T01160001  RH  045%=      5-min Rain = 0
KAMH 162315Z 02015KT 12/00 A3001 RMK A01 T01160004  RH  046%=      5-min Rain = 0
KAMH 162316Z 01015G20KT 12/00 A3001 RMK A01 T01160004  RH  046%=      5-min Rain = 0
KAMH 162317Z 01015G20KT 12/00 A3001 RMK A01 T01170004  RH  046%=      5-min Rain = 0
KAMH 162318Z 01020G27KT 12/00 A3001 RMK A01 T01160003  RH  046%=      5-min Rain = 0
KAMH 162319Z 01023G28KT 11/00 A3001 RMK A01 T01140002  RH  046%=      5-min Rain = 0
KAMH 162320Z 02021G27KT 11/00 A3001 RMK A01 T01130002  RH  046%=      5-min Rain = 0
KAMH 162321Z 01018G24KT 11/00 A3001 RMK A01 T01110001  RH  046%=      5-min Rain = 0
KAMH 162322Z 02018G23KT 11/00 A3001 RMK A01 T01110002  RH  047%=      5-min Rain = 0
KAMH 162323Z 02018G23KT 11/00 A3001 RMK A01 T01110003  RH  047%=      5-min Rain = 0
KAMH 162324Z 02018G23KT 11/01 A3001 RMK A01 T01110005  RH  048%=      5-min Rain = 0
KAMH 162325Z 02019KT 11/01 A3001 RMK A01 T01100005  RH  048%=      5-min Rain = 0
KAMH 162326Z 02019G25KT 11/01 A3001 RMK A01 T01100007  RH  049%=      5-min Rain = 0
KAMH 162327Z 02022KT 11/00 A3001 RMK A01 T01100004  RH  048%=      5-min Rain = 0
KAMH 162328Z 02019G24KT 11/00 A3001 RMK A01 T01090004  RH  048%=      5-min Rain = 0
KAMH 162329Z 02018G26KT 11/01 A3001 RMK A01 T01090005  RH  049%=      5-min Rain = 0
KAMH 162330Z 02021KT 11/00 A3002 RMK A01 T01090003  RH  048%=      5-min Rain = 0
KAMH 162331Z 02020G27KT 11/00 A3002 RMK A01 T01070002  RH  048%=      5-min Rain = 0
KAMH 162332Z 02022G27KT 11/00 A3002 RMK A01 T01060003  RH  049%=      5-min Rain = 0
KAMH 162333Z 03019G25KT 11/00 A3002 RMK A01 T01060004  RH  049%=      5-min Rain = 0
KAMH 162334Z 03020G25KT 11/00 A3002 RMK A01 T01060004  RH  049%=      5-min Rain = 0
KAMH 162335Z 03019G24KT 11/00 A3002 RMK A01 T01050003  RH  049%=      5-min Rain = 0
KAMH 162336Z 03018G24KT 10/00 A3002 RMK A01 T01040004  RH  050%=      5-min Rain = 0
KAMH 162337Z 03016G21KT 10/00 A3002 RMK A01 T01040003  RH  049%=      5-min Rain = 0
KAMH 162338Z 03017G23KT 10/01 A3002 RMK A01 T01040005  RH  050%=      5-min Rain = 0
KAMH 162339Z 02016G21KT 10/01 A3003 RMK A01 T01040005  RH  050%=      5-min Rain = 0
KAMH 162340Z 03015KT 11/01 A3003 RMK A01 T01050006  RH  050%=      5-min Rain = 0
KAMH 162341Z 03022G28KT 11/01 A3003 RMK A01 T01050006  RH  050%=      5-min Rain = 0
KAMH 162342Z 03020G26KT 10/00 A3003 RMK A01 T01030004  RH  050%=      5-min Rain = 0
KAMH 162343Z 03020G26KT 10/00 A3003 RMK A01 T01010004  RH  051%=      5-min Rain = 0
KAMH 162344Z 03019G26KT 10/01 A3003 RMK A01 T01010005  RH  051%=      5-min Rain = 0
KAMH 162345Z 04018KT 10/00 A3003 RMK A01 T01000004  RH  051%=      5-min Rain = 0
KAMH 162346Z 03019G24KT 10/00 A3003 RMK A01 T00990002  RH  051%=      5-min Rain = 0
KAMH 162347Z 03016KT 10/00 A3003 RMK A01 T00980002  RH  051%=      5-min Rain = 0
KAMH 162348Z 03017G22KT 10/00 A3003 RMK A01 T00980003  RH  051%=      5-min Rain = 0
KAMH 162349Z 02016G23KT 10/00 A3003 RMK A01 T00990001  RH  051%=      5-min Rain = 0
KAMH 162350Z 02017KT 10/00 A3003 RMK A01 T00990001  RH  051%=      5-min Rain = 0
KAMH 162351Z 03017G22KT 10/00 A3004 RMK A01 T01000003  RH  051%=      5-min Rain = 0
KAMH 162352Z 03016KT 10/01 A3004 RMK A01 T01000006  RH  052%=      5-min Rain = 0
KAMH 162353Z 03015G20KT 10/01 A3004 RMK A01 T01000007  RH  052%=      5-min Rain = 0
KAMH 162354Z 02016G21KT 10/01 A3004 RMK A01 T00990007  RH  052%=      5-min Rain = 0
KAMH 162355Z 03016G22KT 10/01 A3004 RMK A01 T00990006  RH  052%=      5-min Rain = 0
KAMH 162356Z 02017G23KT 10/00 A3004 RMK A01 T00990004  RH  052%=      5-min Rain = 0
KAMH 162357Z 02018KT 10/00 A3004 RMK A01 T00990003  RH  051%=      5-min Rain = 0
KAMH 162358Z 02017KT 10/00 A3004 RMK A01 T00980002  RH  051%=      5-min Rain = 0
KAMH 162359Z 02016G22KT 10/00 A3004 RMK A01 T00970003  RH  052%=      5-min Rain = 0
KAMH 170000Z 02018G25KT 10/00 A3004 RMK A01 T00970002  RH  052%=      5-min Rain = 0
KAMH 170001Z 03020KT 10/00 A3004 RMK A01 T00960000  RH  051%=      5-min Rain = 0
KAMH 170002Z 02017G25KT 10/00 A3004 RMK A01 T00950001  RH  052%=      5-min Rain = 0
KAMH 170003Z 03019G24KT 09/00 A3004 RMK A01 T009400-0  RH  052%=      5-min Rain = 0
KAMH 170004Z 03019KT 09/00 A3004 RMK A01 T00940001  RH  052%=      5-min Rain = 0
KAMH 170005Z 03020KT 09/00 A3004 RMK A01 T00940001  RH  052%=      5-min Rain = 0
KAMH 170006Z 03017G24KT 09/00 A3004 RMK A01 T00940001  RH  052%=      5-min Rain = 0
KAMH 170007Z 02016KT 09/00 A3004 RMK A01 T00940002  RH  053%=      5-min Rain = 0
KAMH 170008Z 02019G25KT 09/00 A3004 RMK A01 T00940000  RH  052%=      5-min Rain = 0
KAMH 170009Z 03020G25KT 09/M00 A3004 RMK A01 T00931002  RH  051%=      5-min Rain = 0
KAMH 170010Z 03017G23KT 09/M00 A3004 RMK A01 T00921001  RH  052%=      5-min Rain = 0
KAMH 170011Z 03019KT 09/M00 A3004 RMK A01 T00921001  RH  052%=      5-min Rain = 0
KAMH 170012Z 03019G25KT 09/M00 A3004 RMK A01 T00921002  RH  052%=      5-min Rain = 0
KAMH 170013Z 03019G25KT 09/M00 A3005 RMK A01 T00921002  RH  052%=      5-min Rain = 0
KAMH 170014Z 03019KT 09/M00 A3004 RMK A01 T00911002  RH  052%=      5-min Rain = 0
KAMH 170015Z 03019G24KT 09/M00 A3004 RMK A01 T00911001  RH  052%=      5-min Rain = 0
KAMH 170016Z 02018KT 09/M00 A3005 RMK A01 T00911001  RH  052%=      5-min Rain = 0
KAMH 170017Z 02018G25KT 09/M00 A3004 RMK A01 T00911001  RH  052%=      5-min Rain = 0
KAMH 170018Z 02018G23KT 09/M00 A3004 RMK A01 T00911004  RH  051%=      5-min Rain = 0
KAMH 170019Z 01020KT 09/M00 A3004 RMK A01 T00911003  RH  052%=      5-min Rain = 0
KAMH 170020Z 02018G23KT 09/M00 A3004 RMK A01 T00911004  RH  052%=      5-min Rain = 0
KAMH 170021Z 02017G23KT 09/M00 A3004 RMK A01 T00911002  RH  052%=      5-min Rain = 0
KAMH 170022Z 02019G24KT 09/M00 A3004 RMK A01 T00911001  RH  053%=      5-min Rain = 0
KAMH 170023Z 02019KT 09/00 A3004 RMK A01 T00910001  RH  053%=      5-min Rain = 0
KAMH 170024Z 02017KT 09/00 A3004 RMK A01 T00910002  RH  054%=      5-min Rain = 0
KAMH 170025Z 03020G26KT 09/00 A3004 RMK A01 T00910003  RH  054%=      5-min Rain = 0
KAMH 170026Z 03020G26KT 09/00 A3004 RMK A01 T00900001  RH  054%=      5-min Rain = 0
KAMH 170027Z 03017G23KT 09/00 A3004 RMK A01 T00890002  RH  055%=      5-min Rain = 0
KAMH 170028Z 03017G23KT 09/00 A3004 RMK A01 T00880002  RH  055%=      5-min Rain = 0
KAMH 170029Z 03016G22KT 09/00 A3004 RMK A01 T00880003  RH  055%=      5-min Rain = 0
KAMH 170030Z 03018G23KT 09/00 A3005 RMK A01 T00880003  RH  055%=      5-min Rain = 0
KAMH 170031Z 03017G22KT 09/00 A3005 RMK A01 T00870003  RH  055%=      5-min Rain = 0
KAMH 170032Z 03018G28KT 09/00 A3005 RMK A01 T00870003  RH  056%=      5-min Rain = 0
KAMH 170033Z 02021G26KT 09/00 A3005 RMK A01 T00870003  RH  056%=      5-min Rain = 0
KAMH 170034Z 02020G25KT 09/00 A3005 RMK A01 T00860002  RH  056%=      5-min Rain = 0
KAMH 170035Z 02020G26KT 09/00 A3005 RMK A01 T00860001  RH  055%=      5-min Rain = 0
KAMH 170036Z 02020G25KT 09/00 A3005 RMK A01 T00850000  RH  055%=      5-min Rain = 0
KAMH 170037Z 02019G25KT 09/00 A3005 RMK A01 T008500-0  RH  055%=      5-min Rain = 0
KAMH 170038Z 02019G24KT 08/00 A3005 RMK A01 T008400-0  RH  055%=      5-min Rain = 0
KAMH 170039Z 03019G24KT 08/00 A3005 RMK A01 T008400-0  RH  055%=      5-min Rain = 0
KAMH 170040Z 03019G24KT 08/00 A3005 RMK A01 T00840001  RH  056%=      5-min Rain = 0
KAMH 170041Z 02017G24KT 08/00 A3005 RMK A01 T00840001  RH  056%=      5-min Rain = 0
KAMH 170042Z 02020G25KT 08/M00 A3005 RMK A01 T00841001  RH  055%=      5-min Rain = 0
KAMH 170043Z 02019G26KT 08/M00 A3005 RMK A01 T00841001  RH  055%=      5-min Rain = 0
KAMH 170044Z 02019KT 08/M00 A3006 RMK A01 T00841001  RH  055%=      5-min Rain = 0
KAMH 170045Z 02017KT 08/M00 A3006 RMK A01 T00831001  RH  055%=      5-min Rain = 0
KAMH 170046Z 02019KT 08/00 A3006 RMK A01 T00830000  RH  056%=      5-min Rain = 0
KAMH 170047Z 03018KT 08/00 A3006 RMK A01 T00830001  RH  056%=      5-min Rain = 0
KAMH 170048Z 03018G23KT 08/00 A3006 RMK A01 T00820002  RH  057%=      5-min Rain = 0
KAMH 170049Z 03017G23KT 08/00 A3006 RMK A01 T00820002  RH  057%=      5-min Rain = 0
KAMH 170050Z 03020KT 08/00 A3006 RMK A01 T00820002  RH  057%=      5-min Rain = 0
KAMH 170051Z 03017KT 08/00 A3006 RMK A01 T00810003  RH  058%=      5-min Rain = 0
KAMH 170052Z 03017G23KT 08/00 A3006 RMK A01 T00810003  RH  058%=      5-min Rain = 0
KAMH 170053Z 03019G24KT 08/00 A3006 RMK A01 T00810003  RH  058%=      5-min Rain = 0
KAMH 170054Z 03020G26KT 08/00 A3006 RMK A01 T00800003  RH  058%=      5-min Rain = 0
KAMH 170055Z 02021KT 08/00 A3006 RMK A01 T00800001  RH  058%=      5-min Rain = 0
KAMH 170056Z 03019G26KT 08/00 A3006 RMK A01 T007900-0  RH  057%=      5-min Rain = 0
KAMH 170057Z 03018G24KT 08/00 A3006 RMK A01 T00790001  RH  058%=      5-min Rain = 0
KAMH 170058Z 03019G24KT 08/00 A3006 RMK A01 T00790000  RH  058%=      5-min Rain = 0
KAMH 170059Z 03020KT 08/00 A3006 RMK A01 T007900-0  RH  058%=      5-min Rain = 0
KAMH 170100Z 02017G22KT 08/00 A3007 RMK A01 T00780000  RH  058%=      5-min Rain = 0
KAMH 170101Z 02016G24KT 08/00 A3007 RMK A01 T00780001  RH  058%=      5-min Rain = 0
KAMH 170102Z 02020KT 08/00 A3007 RMK A01 T00780000  RH  058%=      5-min Rain = 0
KAMH 170103Z 02019G24KT 08/00 A3007 RMK A01 T007800-0  RH  058%=      5-min Rain = 0
KAMH 170104Z 02019G24KT 08/M00 A3007 RMK A01 T00771001  RH  058%=      5-min Rain = 0
KAMH 170105Z 02020KT 08/00 A3007 RMK A01 T007700-0  RH  058%=      5-min Rain = 0
KAMH 170106Z 02019G24KT 08/00 A3007 RMK A01 T00770000  RH  058%=      5-min Rain = 0
KAMH 170107Z 02018G24KT 08/00 A3007 RMK A01 T00770001  RH  059%=      5-min Rain = 0
KAMH 170108Z 02019G25KT 08/00 A3007 RMK A01 T00760001  RH  059%=      5-min Rain = 0
KAMH 170109Z 02017G23KT 08/00 A3007 RMK A01 T00760000  RH  059%=      5-min Rain = 0
KAMH 170110Z 02020G25KT 08/00 A3007 RMK A01 T00760000  RH  059%=      5-min Rain = 0
KAMH 170111Z 02019G24KT 08/00 A3007 RMK A01 T007500-0  RH  059%=      5-min Rain = 0
KAMH 170112Z 02019G24KT 08/00 A3007 RMK A01 T007500-0  RH  059%=      5-min Rain = 0
KAMH 170113Z 02018KT 07/00 A3007 RMK A01 T007400-0  RH  059%=      5-min Rain = 0
KAMH 170114Z 02017KT 07/00 A3007 RMK A01 T00740000  RH  059%=      5-min Rain = 0
KAMH 170115Z 02017G22KT 07/00 A3007 RMK A01 T00740001  RH  060%=      5-min Rain = 0
KAMH 170116Z 02015KT 07/00 A3007 RMK A01 T00740000  RH  059%=      5-min Rain = 0
KAMH 170117Z 02016KT 07/00 A3007 RMK A01 T00740001  RH  060%=      5-min Rain = 0
KAMH 170118Z 02015KT 07/00 A3007 RMK A01 T00740001  RH  060%=      5-min Rain = 0
KAMH 170119Z 02015G20KT 07/00 A3007 RMK A01 T00730002  RH  060%=      5-min Rain = 0
KAMH 170120Z 02018KT 07/00 A3007 RMK A01 T00730002  RH  061%=      5-min Rain = 0
KAMH 170121Z 03017KT 07/00 A3007 RMK A01 T00730002  RH  061%=      5-min Rain = 0
KAMH 170122Z 03017G23KT 07/00 A3007 RMK A01 T00720002  RH  061%=      5-min Rain = 0
KAMH 170123Z 03016G22KT 07/00 A3007 RMK A01 T00720001  RH  061%=      5-min Rain = 0
KAMH 170124Z 03017KT 07/00 A3007 RMK A01 T00710000  RH  061%=      5-min Rain = 0
KAMH 170125Z 03017G23KT 07/M00 A3007 RMK A01 T00711001  RH  060%=      5-min Rain = 0
KAMH 170126Z 03017G23KT 07/M00 A3007 RMK A01 T00711002  RH  060%=      5-min Rain = 0
KAMH 170127Z 03016G23KT 07/M00 A3007 RMK A01 T00711001  RH  060%=      5-min Rain = 0
KAMH 170128Z 03016G22KT 07/M00 A3007 RMK A01 T00701001  RH  060%=      5-min Rain = 0
KAMH 170129Z 03018KT 07/M00 A3007 RMK A01 T00701001  RH  060%=      5-min Rain = 0
KAMH 170130Z 03018G24KT 07/M00 A3007 RMK A01 T00701001  RH  060%=      5-min Rain = 0
KAMH 170131Z 03018G23KT 07/M00 A3008 RMK A01 T00701002  RH  060%=      5-min Rain = 0
KAMH 170132Z 03018KT 07/M00 A3008 RMK A01 T00701002  RH  060%=      5-min Rain = 0
KAMH 170133Z 02018KT 07/M00 A3008 RMK A01 T00701001  RH  060%=      5-min Rain = 0
KAMH 170134Z 02017KT 07/M00 A3008 RMK A01 T00701001  RH  061%=      5-min Rain = 0
KAMH 170135Z 03016G21KT 07/M00 A3008 RMK A01 T00701001  RH  061%=      5-min Rain = 0
KAMH 170136Z 02017KT 07/00 A3008 RMK A01 T007000-0  RH  061%=      5-min Rain = 0
KAMH 170137Z 03016G21KT 07/00 A3008 RMK A01 T007000-0  RH  061%=      5-min Rain = 0
KAMH 170138Z 03016G22KT 07/00 A3008 RMK A01 T00700001  RH  062%=      5-min Rain = 0
KAMH 170139Z 04018G24KT 07/00 A3008 RMK A01 T00690001  RH  062%=      5-min Rain = 0
KAMH 170140Z 03019G26KT 07/00 A3008 RMK A01 T00690001  RH  062%=      5-min Rain = 0
KAMH 170141Z 03018G26KT 07/00 A3008 RMK A01 T00680000  RH  062%=      5-min Rain = 0
KAMH 170142Z 03017G25KT 07/00 A3008 RMK A01 T00680001  RH  062%=      5-min Rain = 0
KAMH 170143Z 03017G22KT 07/00 A3008 RMK A01 T00680000  RH  062%=      5-min Rain = 0
KAMH 170144Z 03017KT 07/00 A3008 RMK A01 T00680001  RH  063%=      5-min Rain = 0
KAMH 170145Z 03014G20KT 07/00 A3008 RMK A01 T00670001  RH  063%=      5-min Rain = 0
KAMH 170146Z 03016G22KT 07/00 A3008 RMK A01 T00670002  RH  063%=      5-min Rain = 0
KAMH 170147Z 03015KT 07/00 A3008 RMK A01 T00670002  RH  063%=      5-min Rain = 0
KAMH 170148Z 03014G21KT 07/00 A3008 RMK A01 T00670002  RH  063%=      5-min Rain = 0
KAMH 170149Z 03016G22KT 07/00 A3008 RMK A01 T00670002  RH  063%=      5-min Rain = 0
KAMH 170150Z 03015G20KT 07/00 A3008 RMK A01 T00670002  RH  063%=      5-min Rain = 0
KAMH 170151Z 03014KT 07/00 A3009 RMK A01 T00670003  RH  064%=      5-min Rain = 0
KAMH 170152Z 03017KT 07/00 A3009 RMK A01 T00660003  RH  064%=      5-min Rain = 0
KAMH 170153Z 03015G20KT 07/00 A3009 RMK A01 T00660003  RH  064%=      5-min Rain = 0
KAMH 170154Z 03014G20KT 07/00 A3009 RMK A01 T00660003  RH  064%=      5-min Rain = 0
KAMH 170155Z 03016KT 07/00 A3009 RMK A01 T00660003  RH  064%=      5-min Rain = 0
KAMH 170156Z 03017G22KT 07/00 A3009 RMK A01 T00660003  RH  064%=      5-min Rain = 0
KAMH 170157Z 04016G22KT 07/00 A3009 RMK A01 T00660002  RH  064%=      5-min Rain = 0
KAMH 170158Z 03018KT 07/00 A3009 RMK A01 T00660002  RH  064%=      5-min Rain = 0
KAMH 170159Z 03015G21KT 07/00 A301 RMK A01 T00660002  RH  064%=      5-min Rain = 0
KAMH 170200Z 04017KT 07/00 A301 RMK A01 T00650002  RH  064%=      5-min Rain = 0
KAMH 170201Z 04016KT 07/00 A301 RMK A01 T00650001  RH  064%=      5-min Rain = 0
KAMH 170202Z 03014KT 07/00 A301 RMK A01 T00650001  RH  064%=      5-min Rain = 0
KAMH 170203Z 04015G20KT 06/00 A301 RMK A01 T00640001  RH  064%=      5-min Rain = 0
KAMH 170204Z 03016KT 06/00 A301 RMK A01 T00640001  RH  064%=      5-min Rain = 0
KAMH 170205Z 03015KT 06/00 A301 RMK A01 T00640001  RH  064%=      5-min Rain = 0
KAMH 170206Z 03016KT 06/00 A301 RMK A01 T00640000  RH  064%=      5-min Rain = 0
KAMH 170207Z 03013KT 06/00 A3011 RMK A01 T00640000  RH  064%=      5-min Rain = 0
KAMH 170208Z 03015G21KT 06/00 A3011 RMK A01 T00640001  RH  064%=      5-min Rain = 0
KAMH 170209Z 03016KT 06/00 A3011 RMK A01 T00630001  RH  064%=      5-min Rain = 0
KAMH 170210Z 03016G21KT 06/00 A3011 RMK A01 T00630000  RH  064%=      5-min Rain = 0
KAMH 170211Z 03015KT 06/00 A3011 RMK A01 T00630000  RH  064%=      5-min Rain = 0
KAMH 170212Z 03015KT 06/00 A3011 RMK A01 T00630000  RH  064%=      5-min Rain = 0
KAMH 170213Z 03014KT 06/00 A3011 RMK A01 T00630001  RH  064%=      5-min Rain = 0
KAMH 170214Z 04014KT 06/00 A3011 RMK A01 T00620001  RH  065%=      5-min Rain = 0
KAMH 170215Z 03013KT 06/00 A3011 RMK A01 T00620001  RH  065%=      5-min Rain = 0
KAMH 170216Z 04012KT 06/00 A3011 RMK A01 T00620001  RH  065%=      5-min Rain = 0
KAMH 170217Z 03012G17KT 06/00 A3011 RMK A01 T00610002  RH  065%=      5-min Rain = 0
KAMH 170218Z 03012KT 06/00 A3011 RMK A01 T00610001  RH  066%=      5-min Rain = 0
KAMH 170219Z 03014KT 06/00 A3011 RMK A01 T00610001  RH  065%=      5-min Rain = 0
KAMH 170220Z 03012KT 06/00 A3011 RMK A01 T00610001  RH  065%=      5-min Rain = 0
KAMH 170221Z 03011G19KT 06/00 A3012 RMK A01 T00610002  RH  066%=      5-min Rain = 0
KAMH 170222Z 04013KT 06/00 A3012 RMK A01 T00610001  RH  065%=      5-min Rain = 0
KAMH 170223Z 03014KT 06/00 A3012 RMK A01 T00610001  RH  065%=      5-min Rain = 0
KAMH 170224Z 03012KT 06/00 A3012 RMK A01 T00610001  RH  065%=      5-min Rain = 0
KAMH 170225Z 03014G19KT 06/00 A3012 RMK A01 T00610001  RH  065%=      5-min Rain = 0
KAMH 170226Z 03013G18KT 06/00 A3012 RMK A01 T00610001  RH  065%=      5-min Rain = 0
KAMH 170227Z 03013KT 06/00 A3012 RMK A01 T00610001  RH  065%=      5-min Rain = 0
KAMH 170228Z 04013KT 06/00 A3012 RMK A01 T00610001  RH  065%=      5-min Rain = 0
KAMH 170229Z 03013KT 06/00 A3012 RMK A01 T00610001  RH  065%=      5-min Rain = 0
KAMH 170230Z 03013KT 06/00 A3012 RMK A01 T00610000  RH  065%=      5-min Rain = 0
KAMH 170231Z 03010KT 06/00 A3013 RMK A01 T00610001  RH  065%=      5-min Rain = 0
KAMH 170232Z 03013G18KT 06/00 A3013 RMK A01 T00610002  RH  066%=      5-min Rain = 0
KAMH 170233Z 03013KT 06/00 A3013 RMK A01 T00610001  RH  066%=      5-min Rain = 0
KAMH 170234Z 03016KT 06/00 A3013 RMK A01 T00610001  RH  065%=      5-min Rain = 0
KAMH 170235Z 03013KT 06/00 A3013 RMK A01 T00610000  RH  065%=      5-min Rain = 0
KAMH 170236Z 02012KT 06/00 A3013 RMK A01 T00610001  RH  065%=      5-min Rain = 0
KAMH 170237Z 02015KT 06/00 A3013 RMK A01 T00610001  RH  065%=      5-min Rain = 0
KAMH 170238Z 02015KT 06/M00 A3013 RMK A01 T00611001  RH  065%=      5-min Rain = 0
KAMH 170239Z 02014KT 06/00 A3013 RMK A01 T006100-0  RH  065%=      5-min Rain = 0
KAMH 170240Z 03013KT 06/00 A3013 RMK A01 T006100-0  RH  065%=      5-min Rain = 0
KAMH 170241Z 03012KT 06/00 A3013 RMK A01 T00610000  RH  065%=      5-min Rain = 0
KAMH 170242Z 03010KT 06/00 A3014 RMK A01 T00610001  RH  065%=      5-min Rain = 0
KAMH 170243Z 04011KT 06/00 A3014 RMK A01 T00610001  RH  066%=      5-min Rain = 0
KAMH 170244Z 03012KT 06/00 A3014 RMK A01 T00610000  RH  065%=      5-min Rain = 0
KAMH 170245Z 04013KT 06/00 A3014 RMK A01 T00610000  RH  065%=      5-min Rain = 0
KAMH 170246Z 04013KT 06/00 A3014 RMK A01 T006100-0  RH  065%=      5-min Rain = 0
KAMH 170247Z 03012KT 06/M00 A3014 RMK A01 T00611001  RH  065%=      5-min Rain = 0
KAMH 170248Z 03012KT 06/00 A3014 RMK A01 T006000-0  RH  065%=      5-min Rain = 0
KAMH 170249Z 03012KT 06/M00 A3014 RMK A01 T00601001  RH  065%=      5-min Rain = 0
KAMH 170250Z 04012G17KT 06/00 A3014 RMK A01 T00600000  RH  065%=      5-min Rain = 0
KAMH 170251Z 04013KT 06/00 A3014 RMK A01 T006000-0  RH  065%=      5-min Rain = 0
KAMH 170252Z 03010KT 06/00 A3014 RMK A01 T00600000  RH  066%=      5-min Rain = 0
KAMH 170253Z 03014KT 06/00 A3014 RMK A01 T00600000  RH  066%=      5-min Rain = 0
KAMH 170254Z 03014KT 06/M00 A3014 RMK A01 T00601001  RH  065%=      5-min Rain = 0
KAMH 170255Z 03014KT 06/M00 A3014 RMK A01 T00601001  RH  065%=      5-min Rain = 0
KAMH 170256Z 03013KT 06/M00 A3014 RMK A01 T00601001  RH  065%=      5-min Rain = 0
KAMH 170257Z 03012KT 06/M00 A3014 RMK A01 T00601001  RH  065%=      5-min Rain = 0
KAMH 170258Z 03010G16KT 06/00 A3014 RMK A01 T00590000  RH  066%=      5-min Rain = 0
KAMH 170259Z 03014KT 06/00 A3014 RMK A01 T00590000  RH  066%=      5-min Rain = 0
KAMH 170300Z 03011KT 06/00 A3014 RMK A01 T005900-0  RH  066%=      5-min Rain = 0
KAMH 170301Z 03013KT 06/00 A3014 RMK A01 T005900-0  RH  066%=      5-min Rain = 0
KAMH 170302Z 03012KT 06/M00 A3014 RMK A01 T00591001  RH  066%=      5-min Rain = 0
KAMH 170303Z 03013KT 06/00 A3014 RMK A01 T005900-0  RH  066%=      5-min Rain = 0
KAMH 170304Z 03013KT 06/00 A3014 RMK A01 T005900-0  RH  066%=      5-min Rain = 0
KAMH 170305Z 04009G14KT 06/00 A3014 RMK A01 T00590000  RH  066%=      5-min Rain = 0
KAMH 170306Z 03012KT 06/00 A3014 RMK A01 T00580001  RH  066%=      5-min Rain = 0
KAMH 170307Z 04009KT 06/00 A3015 RMK A01 T00580001  RH  067%=      5-min Rain = 0
KAMH 170308Z 04010KT 06/00 A3015 RMK A01 T00580001  RH  067%=      5-min Rain = 0
KAMH 170309Z 03009KT 06/00 A3015 RMK A01 T00570001  RH  067%=      5-min Rain = 0
KAMH 170310Z 03009KT 06/00 A3015 RMK A01 T00570001  RH  067%=      5-min Rain = 0
KAMH 170311Z 04010KT 06/00 A3015 RMK A01 T00570001  RH  067%=      5-min Rain = 0
KAMH 170312Z 03011KT 06/00 A3015 RMK A01 T00570001  RH  067%=      5-min Rain = 0
KAMH 170313Z 03013KT 06/00 A3015 RMK A01 T00570001  RH  067%=      5-min Rain = 0
KAMH 170314Z 03011KT 06/00 A3015 RMK A01 T00570000  RH  067%=      5-min Rain = 0
KAMH 170315Z 04011KT 06/00 A3014 RMK A01 T00570001  RH  067%=      5-min Rain = 0
KAMH 170316Z 03013KT 06/00 A3014 RMK A01 T00570001  RH  067%=      5-min Rain = 0
KAMH 170317Z 04012G17KT 06/00 A3014 RMK A01 T005700-0  RH  067%=      5-min Rain = 0
KAMH 170318Z 03012KT 06/00 A3014 RMK A01 T00570000  RH  067%=      5-min Rain = 0
KAMH 170319Z 03011KT 06/00 A3015 RMK A01 T00570000  RH  067%=      5-min Rain = 0
KAMH 170320Z 03013KT 06/00 A3014 RMK A01 T005700-0  RH  067%=      5-min Rain = 0
KAMH 170321Z 03012KT 06/00 A3015 RMK A01 T005700-0  RH  067%=      5-min Rain = 0
KAMH 170322Z 03014KT 06/M00 A3015 RMK A01 T00571001  RH  066%=      5-min Rain = 0
KAMH 170323Z 03013G18KT 06/M00 A3015 RMK A01 T00571001  RH  066%=      5-min Rain = 0
KAMH 170324Z 03013KT 06/M00 A3015 RMK A01 T00571001  RH  066%=      5-min Rain = 0
KAMH 170325Z 03014KT 06/M00 A3015 RMK A01 T00571001  RH  066%=      5-min Rain = 0
KAMH 170326Z 03014KT 06/M00 A3015 RMK A01 T00571001  RH  066%=      5-min Rain = 0
KAMH 170327Z 03012KT 06/M00 A3015 RMK A01 T00571001  RH  066%=      5-min Rain = 0
KAMH 170328Z 03011KT 06/00 A3015 RMK A01 T005700-0  RH  067%=      5-min Rain = 0
KAMH 170329Z 03012KT 06/00 A3015 RMK A01 T00570000  RH  067%=      5-min Rain = 0
KAMH 170330Z 03012KT 06/00 A3015 RMK A01 T00560000  RH  067%=      5-min Rain = 0
KAMH 170331Z 03011KT 06/00 A3015 RMK A01 T00560000  RH  067%=      5-min Rain = 0
KAMH 170332Z 03010KT 06/00 A3015 RMK A01 T00560000  RH  067%=      5-min Rain = 0
KAMH 170333Z 03010KT 06/00 A3015 RMK A01 T00560001  RH  068%=      5-min Rain = 0
KAMH 170334Z 03010KT 06/00 A3015 RMK A01 T00560001  RH  068%=      5-min Rain = 0
KAMH 170335Z 03011G16KT 06/00 A3015 RMK A01 T00550001  RH  068%=      5-min Rain = 0
KAMH 170336Z 03011KT 06/00 A3015 RMK A01 T00560001  RH  068%=      5-min Rain = 0
KAMH 170337Z 03012KT 06/00 A3015 RMK A01 T00560000  RH  068%=      5-min Rain = 0
KAMH 170338Z 03012KT 06/00 A3015 RMK A01 T00550000  RH  067%=      5-min Rain = 0
KAMH 170339Z 04011KT 06/00 A3015 RMK A01 T00560000  RH  068%=      5-min Rain = 0
KAMH 170340Z 03010KT 06/00 A3015 RMK A01 T00560001  RH  068%=      5-min Rain = 0
KAMH 170341Z 04009KT 06/00 A3015 RMK A01 T00560001  RH  068%=      5-min Rain = 0
KAMH 170342Z 04009KT 06/00 A3015 RMK A01 T00550002  RH  069%=      5-min Rain = 0
KAMH 170343Z 04009KT 06/00 A3015 RMK A01 T00550002  RH  069%=      5-min Rain = 0
KAMH 170344Z 03011KT 06/00 A3015 RMK A01 T00550002  RH  069%=      5-min Rain = 0
KAMH 170345Z 03010KT 06/00 A3015 RMK A01 T00550002  RH  069%=      5-min Rain = 0
KAMH 170346Z 03010KT 06/00 A3015 RMK A01 T00550002  RH  069%=      5-min Rain = 0
KAMH 170347Z 04009KT 06/00 A3015 RMK A01 T00550002  RH  069%=      5-min Rain = 0
KAMH 170348Z 04009KT 06/00 A3015 RMK A01 T00550002  RH  069%=      5-min Rain = 0
KAMH 170349Z 04009KT 06/00 A3015 RMK A01 T00550003  RH  069%=      5-min Rain = 0
KAMH 170350Z 04011KT 05/00 A3015 RMK A01 T00540003  RH  069%=      5-min Rain = 0
KAMH 170351Z 04010KT 05/00 A3015 RMK A01 T00540002  RH  069%=      5-min Rain = 0
KAMH 170352Z 04008KT 05/00 A3015 RMK A01 T00540003  RH  069%=      5-min Rain = 0
KAMH 170353Z 04009KT 05/00 A3015 RMK A01 T00540003  RH  070%=      5-min Rain = 0
KAMH 170354Z 04008KT 05/00 A3015 RMK A01 T00540003  RH  070%=      5-min Rain = 0
KAMH 170355Z 03008KT 05/00 A3016 RMK A01 T00540004  RH  070%=      5-min Rain = 0
KAMH 170356Z 03008KT 05/00 A3016 RMK A01 T00540004  RH  070%=      5-min Rain = 0
KAMH 170357Z 03008KT 05/00 A3016 RMK A01 T00530004  RH  070%=      5-min Rain = 0
KAMH 170358Z 03008KT 05/00 A3016 RMK A01 T00530004  RH  070%=      5-min Rain = 0
KAMH 170359Z 03008KT 05/00 A3016 RMK A01 T00530004  RH  071%=      5-min Rain = 0
KAMH 170400Z 03009KT 05/00 A3016 RMK A01 T00530004  RH  071%=      5-min Rain = 0
KAMH 170401Z 03009KT 05/00 A3016 RMK A01 T00530004  RH  071%=      5-min Rain = 0
KAMH 170402Z 03009KT 05/01 A3015 RMK A01 T00530005  RH  071%=      5-min Rain = 0
KAMH 170403Z 03010KT 05/01 A3015 RMK A01 T00530005  RH  071%=      5-min Rain = 0
KAMH 170404Z 03010KT 05/01 A3015 RMK A01 T00530005  RH  071%=      5-min Rain = 0
KAMH 170405Z 04009KT 05/00 A3015 RMK A01 T00530004  RH  071%=      5-min Rain = 0
KAMH 170406Z 03009KT 05/01 A3015 RMK A01 T00530005  RH  071%=      5-min Rain = 0
KAMH 170407Z 04010KT 05/01 A3015 RMK A01 T00530005  RH  071%=      5-min Rain = 0
KAMH 170408Z 03009KT 05/00 A3015 RMK A01 T00530004  RH  071%=      5-min Rain = 0
KAMH 170409Z 03009KT 05/01 A3015 RMK A01 T00530005  RH  071%=      5-min Rain = 0
KAMH 170410Z 03008KT 05/01 A3015 RMK A01 T00530005  RH  071%=      5-min Rain = 0
KAMH 170411Z 03010KT 05/01 A3015 RMK A01 T00530005  RH  071%=      5-min Rain = 0
KAMH 170412Z 03011KT 05/00 A3015 RMK A01 T00530004  RH  071%=      5-min Rain = 0
KAMH 170413Z 03009KT 05/00 A3015 RMK A01 T00530004  RH  071%=      5-min Rain = 0
KAMH 170414Z 03009KT 05/01 A3016 RMK A01 T00530005  RH  071%=      5-min Rain = 0
KAMH 170415Z 03010KT 05/01 A3016 RMK A01 T00530005  RH  071%=      5-min Rain = 0
KAMH 170416Z 03011KT 05/01 A3016 RMK A01 T00530005  RH  071%=      5-min Rain = 0
KAMH 170417Z 02009KT 05/01 A3016 RMK A01 T00530005  RH  071%=      5-min Rain = 0
KAMH 170418Z 03014KT 05/00 A3016 RMK A01 T00530004  RH  071%=      5-min Rain = 0
KAMH 170419Z 03012KT 05/00 A3015 RMK A01 T00530003  RH  070%=      5-min Rain = 0
KAMH 170420Z 03011KT 05/00 A3015 RMK A01 T00530003  RH  070%=      5-min Rain = 0
KAMH 170421Z 02012KT 05/00 A3015 RMK A01 T00530004  RH  071%=      5-min Rain = 0
KAMH 170422Z 03011KT 05/00 A3015 RMK A01 T00530004  RH  071%=      5-min Rain = 0
KAMH 170423Z 02010KT 05/00 A3015 RMK A01 T00530004  RH  071%=      5-min Rain = 0
KAMH 170424Z 03010KT 05/00 A3015 RMK A01 T00530004  RH  071%=      5-min Rain = 0
KAMH 170425Z 03010G15KT 05/01 A3015 RMK A01 T00520005  RH  071%=      5-min Rain = 0
KAMH 170426Z 03012KT 05/01 A3015 RMK A01 T00520005  RH  071%=      5-min Rain = 0
KAMH 170427Z 02014KT 05/00 A3015 RMK A01 T00520003  RH  071%=      5-min Rain = 0
KAMH 170428Z 03012KT 05/00 A3015 RMK A01 T00520003  RH  071%=      5-min Rain = 0
KAMH 170429Z 03011KT 05/00 A3015 RMK A01 T00520004  RH  071%=      5-min Rain = 0
KAMH 170430Z 03012KT 05/00 A3015 RMK A01 T00520004  RH  071%=      5-min Rain = 0
KAMH 170431Z 03012KT 05/00 A3015 RMK A01 T00520004  RH  071%=      5-min Rain = 0
KAMH 170432Z 03011KT 05/00 A3015 RMK A01 T00520004  RH  071%=      5-min Rain = 0
KAMH 170433Z 03011KT 05/00 A3015 RMK A01 T00520004  RH  071%=      5-min Rain = 0
KAMH 170434Z 03011KT 05/00 A3015 RMK A01 T00520004  RH  071%=      5-min Rain = 0
KAMH 170435Z 03011KT 05/00 A3015 RMK A01 T00520004  RH  071%=      5-min Rain = 0
KAMH 170436Z 03011KT 05/00 A3015 RMK A01 T00520004  RH  071%=      5-min Rain = 0
KAMH 170437Z 03011KT 05/00 A3015 RMK A01 T00510003  RH  071%=      5-min Rain = 0
KAMH 170438Z 02012KT 05/00 A3015 RMK A01 T00510003  RH  071%=      5-min Rain = 0
KAMH 170439Z 02012KT 05/00 A3015 RMK A01 T00510004  RH  071%=      5-min Rain = 0
KAMH 170440Z 02011KT 05/00 A3016 RMK A01 T00510004  RH  071%=      5-min Rain = 0
KAMH 170441Z 02013KT 05/00 A3016 RMK A01 T00510003  RH  071%=      5-min Rain = 0
KAMH 170442Z 02013KT 05/00 A3015 RMK A01 T00510003  RH  071%=      5-min Rain = 0
KAMH 170443Z 02011KT 05/00 A3016 RMK A01 T00510003  RH  071%=      5-min Rain = 0
KAMH 170444Z 02012KT 05/00 A3015 RMK A01 T00510002  RH  071%=      5-min Rain = 0
KAMH 170445Z 02010KT 05/00 A3015 RMK A01 T00510003  RH  071%=      5-min Rain = 0
KAMH 170446Z 02012KT 05/00 A3015 RMK A01 T00510003  RH  071%=      5-min Rain = 0
KAMH 170447Z 02010G15KT 05/00 A3016 RMK A01 T00510003  RH  071%=      5-min Rain = 0
KAMH 170448Z 02011KT 05/00 A3016 RMK A01 T00510003  RH  071%=      5-min Rain = 0
KAMH 170449Z 02013KT 05/00 A3015 RMK A01 T00510003  RH  071%=      5-min Rain = 0
KAMH 170450Z 02014KT 05/00 A3015 RMK A01 T00510002  RH  071%=      5-min Rain = 0
KAMH 170451Z 02011KT 05/00 A3015 RMK A01 T00510002  RH  071%=      5-min Rain = 0
KAMH 170452Z 02011KT 05/00 A3015 RMK A01 T00510003  RH  071%=      5-min Rain = 0
KAMH 170453Z 02012KT 05/00 A3015 RMK A01 T00510003  RH  071%=      5-min Rain = 0
KAMH 170454Z 02014KT 05/00 A3015 RMK A01 T00510003  RH  071%=      5-min Rain = 0
KAMH 170455Z 02012KT 05/00 A3015 RMK A01 T00510003  RH  071%=      5-min Rain = 0
KAMH 170456Z 02013KT 05/00 A3015 RMK A01 T00500003  RH  071%=      5-min Rain = 0
KAMH 170457Z 02013KT 05/00 A3015 RMK A01 T00500002  RH  071%=      5-min Rain = 0
KAMH 170458Z 02012KT 05/00 A3015 RMK A01 T00500002  RH  071%=      5-min Rain = 0
KAMH 170459Z 01013KT 05/00 A3015 RMK A01 T00500002  RH  071%=      5-min Rain = 0

Page generated in 0.0651 seconds.